Eltham High School

Historical Weather Data

                  Temp     Hi    Low   Out         Wind        Wind    Hi    Hi   Wind   Heat          THSW                Rain  Solar   Solar Hi Solar         UV    Hi     Heat    Cool    In     In          Wind  Wind    ISS   Arc.
  Date    Time     Out   Temp   Temp   Hum    Dew Speed   Dir   Run Speed   Dir  Chill  Index    THW  Index   Bar    Rain  Rate   Rad.  Energy    Rad.    UV   Dose   UV     D-D     D-D    Temp   Hum     ET   Samp   Tx   Recept  Int.
------------------------------------------------------------------------------------------------------------------------------------------------------------------------------------------------------------------------------------------
21/11/21 12:30a    8.1    8.6    8.0    87    6.0   0.0   ---  0.00   0.0   ---    8.1    8.1    8.1    6.1  1031.6  0.00   0.0     0     0.00      0     0.0  0.00   0.0   0.214   0.000   25.8    33    0.00   663    1     96.9   30 
21/11/21  1:00a    7.9    8.1    7.9    89    6.2   0.0   ---  0.00   0.0   ---    7.9    8.0    8.0    6.1  1031.7  0.00   0.0     0     0.00      0     0.0  0.00   0.0   0.216   0.000   25.7    33    0.00   695    1    100.0   30 
21/11/21  1:30a    8.3    8.3    7.9    90    6.7   0.0   ---  0.00   0.0   ---    8.3    8.4    8.4    6.4  1031.7  0.00   0.0     0     0.00      0     0.0  0.00   0.0   0.209   0.000   25.5    33    0.00   687    1    100.0   30 
21/11/21  2:00a    8.7    8.7    8.3    91    7.3   0.0   ---  0.00   0.0   ---    8.7    8.8    8.8    6.9  1031.5  0.00   0.0     0     0.00      0     0.0  0.00   0.0   0.200   0.000   25.5    33    0.00   652    1     95.3   30 
21/11/21  2:30a    9.0    9.0    8.7    91    7.6   0.0   ---  0.00   0.0   ---    9.0    9.2    9.2    7.3  1031.4  0.00   0.0     0     0.00      0     0.0  0.00   0.0   0.194   0.000   25.4    34    0.00   658    1     96.2   30 
21/11/21  3:00a    9.4    9.4    9.0    90    7.9   0.0   ---  0.00   0.0   ---    9.4    9.6    9.6    7.7  1031.1  0.00   0.0     0     0.00      0     0.0  0.00   0.0   0.185   0.000   25.4    34    0.00   659    1     96.3   30 
21/11/21  3:30a    9.9    9.9    9.4    89    8.2   0.0   ---  0.00   0.0   ---    9.9   10.1   10.1    8.2  1031.2  0.00   0.0     0     0.00      0     0.0  0.00   0.0   0.175   0.000   25.3    34    0.00   655    1     95.8   30 
21/11/21  4:00a   10.3   10.3    9.9    88    8.4   0.0   ---  0.00   0.0   ---   10.3   10.4   10.4    8.6  1031.4  0.00   0.0     0     0.00      0     0.0  0.00   0.0   0.168   0.000   25.4    34    0.00   644    1     94.2   30 
21/11/21  4:30a   10.6   10.6   10.3    87    8.5   0.0   ---  0.00   0.0   ---   10.6   10.7   10.7    8.8  1031.4  0.00   0.0     0     0.00      0     0.0  0.00   0.0   0.161   0.000   25.3    34    0.00   670    1     98.0   30 
21/11/21  5:00a   10.9   10.9   10.6    85    8.5   0.0   ---  0.00   0.0   ---   10.9   10.9   10.9    9.1  1031.5  0.00   0.0     0     0.00      0     0.0  0.00   0.0   0.154   0.000   25.3    34    0.00   689    1    100.0   30 
21/11/21  5:30a   11.2   11.2   10.9    83    8.4   0.0   ---  0.00   0.0   ---   11.2   11.2   11.2    9.3  1031.7  0.00   0.0     0     0.00      0     0.0  0.00   0.0   0.148   0.000   25.3    34    0.00   666    1     97.4   30 
21/11/21  6:00a   11.1   11.3   11.1    81    8.0   0.0   ---  0.00   0.0   ---   11.1   11.0   11.0    9.1  1032.0  0.00   0.0     1     0.04      5     0.0  0.00   0.0   0.150   0.000   25.3    34    0.00   667    1     97.5   30 
21/11/21  6:30a   11.0   11.1   10.9    83    8.2   0.0   ---  0.00   0.0   ---   11.0   10.9   10.9    9.3  1032.2  0.00   0.0    18     0.77     30     0.0  0.00   0.0   0.153   0.000   25.3    34    0.00   688    1    100.0   30 
21/11/21  7:00a   11.4   11.4   11.0    82    8.5   0.0   ---  0.00   0.0   ---   11.4   11.3   11.3    9.9  1032.6  0.00   0.0    40     1.72     51     0.0  0.00   0.0   0.144   0.000   25.2    34    0.03   658    1     96.2   30 
21/11/21  7:30a   11.7   11.7   11.4    81    8.6   0.0   ---  0.00   0.0   ---   11.7   11.6   11.6   10.8  1032.8  0.00   0.0    94     4.04    149     0.0  0.00   0.0   0.138   0.000   25.2    34    0.00   651    1     95.2   30 
21/11/21  8:00a   12.3   12.3   11.8    79    8.8   0.0   ---  0.00   0.0   ---   12.3   12.2   12.2   14.4  1033.1  0.00   0.0   164     7.05    197     0.0  0.00   0.0   0.125   0.000   25.3    34    0.08   660    1     96.5   30 
21/11/21  8:30a   12.9   12.9   12.3    76    8.8   0.0   ---  0.00   0.0   ---   12.9   12.7   12.7   16.3  1033.3  0.00   0.0   237    10.19    285     0.6  0.13   0.8   0.112   0.000   25.4    34    0.00   632    1     92.4   30 
21/11/21  9:00a   13.7   13.7   12.9    73    8.9   0.0   ---  0.00   0.0   ---   13.7   13.3   13.3   17.5  1033.3  0.00   0.0   295    12.69    357     0.9  0.19   1.0   0.097   0.000   25.5    35    0.13   660    1     96.5   30 
21/11/21  9:30a   14.6   14.7   13.7    65    8.0   0.0   ---  0.00   0.0   ---   14.6   14.0   14.0   18.4  1033.2  0.00   0.0   349    15.01    838     1.3  0.28   2.7   0.079   0.000   25.6    35    0.00   680    1     99.4   30 
21/11/21 10:00a   14.8   14.8   14.2    65    8.3   0.0   ---  0.00   0.0   ---   14.8   14.2   14.2   18.2  1033.2  0.00   0.0   342    14.71    476     1.5  0.32   2.1   0.074   0.000   25.8    34    0.20   684    1    100.0   30 
21/11/21 10:30a   15.3   15.3   14.8    63    8.3   0.0   ---  0.00   0.0   ---   15.3   14.7   14.7   19.6  1033.1  0.00   0.0   468    20.13    589     2.5  0.54   3.2   0.063   0.000   26.0    34    0.00   682    1     99.7   30 
21/11/21 11:00a   15.4   15.7   15.3    63    8.4   0.0   ---  0.00   0.0   ---   15.4   14.8   14.8   19.2  1033.2  0.00   0.0   427    18.36    563     2.6  0.56   4.7   0.060   0.000   26.2    34    0.25   694    1    100.0   30 
21/11/21 11:30a   16.2   16.5   15.4    60    8.4   0.0   ---  0.00   0.0   ---   16.2   15.5   15.5   19.9  1033.1  0.00   0.0   454    19.52    587     3.7  0.79   6.4   0.045   0.000   26.4    34    0.00   688    1    100.0   30 
21/11/21 12:00p   17.3   17.6   16.1    59    9.2   0.0   ---  0.00   0.0   ---   17.3   16.7   16.7   22.6  1033.0  0.00   0.0   695    29.89   1404     5.1  1.09   7.2   0.022   0.000   26.3    34    0.38   693    1    100.0   30 
21/11/21 12:30p   17.6   17.9   17.2    59    9.4   0.0   ---  0.00   0.0   ---   17.6   16.9   16.9   22.9  1032.9  0.00   0.0   696    29.93   1457     5.6  1.20   7.8   0.016   0.000   26.3    34    0.00   681    1     99.6   30 
21/11/21  1:00p   18.5   18.7   17.6    55    9.3   0.0   ---  0.00   0.0   ---   18.5   17.8   17.8   24.7  1032.7  0.00   0.0  1154    49.63   1477     6.7  1.44   7.7   0.000   0.003   26.2    34    0.53   680    1     99.4   30 
21/11/21  1:30p   18.2   18.5   17.8    56    9.3   0.0   ---  0.00   0.0   ---   18.2   17.6   17.6   23.3  1032.7  0.00   0.0  1013    43.56   1343     6.3  1.35   7.9   0.002   0.000   26.2    34    0.00   678    1     99.1   30 
21/11/21  2:00p   18.7   18.9   18.2    53    8.9   0.0   ---  0.00   0.0   ---   18.7   18.0   18.0   24.4  1032.8  0.00   0.0  1100    47.31   1327     6.6  1.41   7.7   0.000   0.008   26.2    34    0.56   668    1     97.7   30 
21/11/21  2:30p   18.6   18.7   18.0    54    9.1   0.0   ---  0.00   0.0   ---   18.6   17.8   17.8   23.3  1032.6  0.00   0.0   948    40.77   1250     5.5  1.18   7.1   0.000   0.005   26.2    35    0.00   675    1     98.7   30 
21/11/21  3:00p   18.5   19.0   18.3    57    9.8   0.0   ---  0.00   0.0   ---   18.5   17.9   17.9   24.1  1032.4  0.00   0.0   984    42.32   1201     5.4  1.16   6.6   0.000   0.003   26.2    35    0.51   679    1     99.3   30 
21/11/21  3:30p   18.7   18.9   18.4    58   10.2   0.0   ---  0.00   0.0   ---   18.7   18.2   18.2   24.8  1032.3  0.00   0.0   966    41.54   1129     4.9  1.05   5.9   0.000   0.007   26.2    35    0.00   684    1    100.0   30 
21/11/21  4:00p   18.7   19.3   18.6    58   10.2   0.0   ---  0.00   0.0   ---   18.7   18.2   18.2   25.4  1032.2  0.00   0.0   951    40.90   1067     4.1  0.88   4.8   0.000   0.007   26.2    35    0.48   686    1    100.0   30 
21/11/21  4:30p   17.9   18.9   17.9    61   10.3   0.0   ---  0.00   0.0   ---   17.9   17.5   17.5   22.4  1032.3  0.00   0.0   471    20.26    977     2.9  0.62   4.0   0.008   0.000   26.2    35    0.00   686    1    100.0   30 
21/11/21  5:00p   17.9   18.6   17.5    63   10.7   0.0   ---  0.00   0.0   ---   17.9   17.6   17.6   23.3  1032.5  0.00   0.0   562    24.17    970     2.1  0.45   3.1   0.009   0.000   26.2    36    0.33   674    1     98.5   30 
21/11/21  5:30p   16.8   17.9   16.8    67   10.7   0.0   ---  0.00   0.0   ---   16.8   16.5   16.5   22.0  1032.9  0.00   0.0   465    20.00    728     1.5  0.32   2.1   0.031   0.000   26.2    36    0.00   674    1     98.5   30 
21/11/21  6:00p   16.7   17.1   16.7    68   10.8   0.0   ---  0.00   0.0   ---   16.7   16.4   16.4   20.3  1033.0  0.00   0.0   276    11.87    541     0.9  0.19   1.2   0.034   0.000   26.3    36    0.20   676    1     98.8   30 
21/11/21  6:30p   17.0   17.1   16.5    67   10.8   0.0   ---  0.00   0.0   ---   17.0   16.7   16.7   21.9  1033.3  0.00   0.0   359    15.44    411     0.6  0.13   0.8   0.028   0.000   26.3    36    0.00   654    1     95.6   30 
21/11/21  7:00p   15.9   17.0   15.9    71   10.7   0.0   ---  0.00   0.0   ---   15.9   15.7   15.7   18.5  1033.6  0.00   0.0   183     7.87    316     0.0  0.00   0.0   0.050   0.000   26.2    37    0.15   669    1     97.8   30 
21/11/21  7:30p   15.4   15.9   15.4    72   10.4   0.0   ---  0.00   0.0   ---   15.4   15.1   15.1   14.3  1034.2  0.00   0.0    76     3.27    144     0.0  0.00   0.0   0.061   0.000   26.3    37    0.00   674    1     98.5   30 
21/11/21  8:00p   14.8   15.4   14.8    76   10.6   0.0   ---  0.00   0.0   ---   14.8   14.6   14.6   13.2  1034.6  0.00   0.0    21     0.90     28     0.0  0.00   0.0   0.073   0.000   26.4    36    0.03   671    1     98.1   30 
21/11/21  8:30p   14.3   14.8   14.3    79   10.7   0.0   ---  0.00   0.0   ---   14.3   14.2   14.2   12.5  1034.8  0.00   0.0     3     0.13     11     0.0  0.00   0.0   0.083   0.000   26.4    36    0.00   662    1     96.8   30 
21/11/21  9:00p   14.3   14.4   14.3    81   11.1   0.0   ---  0.00   0.0   ---   14.3   14.2   14.2   12.6  1035.0  0.00   0.0     0     0.00      0     0.0  0.00   0.0   0.083   0.000   26.4    37    0.00   668    1     97.7   30 
21/11/21  9:30p   14.4   14.4   14.3    79   10.8   0.0   ---  0.00   0.0   ---   14.4   14.3   14.3   12.6  1035.2  0.00   0.0     0     0.00      0     0.0  0.00   0.0   0.081   0.000   26.3    37    0.00   670    1     98.0   30 
21/11/21 10:00p   14.3   14.6   14.3    77   10.4   0.0   ---  0.00   0.0   ---   14.3   14.1   14.1   12.4  1035.5  0.00   0.0     0     0.00      0     0.0  0.00   0.0   0.083   0.000   26.5    37    0.03   641    1     93.7   30 
21/11/21 10:30p   13.6   14.3   13.6    80   10.2   0.0   ---  0.00   0.0   ---   13.6   13.4   13.4   11.7  1035.7  0.00   0.0     0     0.00      0     0.0  0.00   0.0   0.100   0.000   26.3    37    0.00   667    1     97.5   30 
21/11/21 11:00p   13.1   13.6   13.1    82   10.1   0.0   ---  0.00   0.0   ---   13.1   12.9   12.9   11.2  1035.5  0.00   0.0     0     0.00      0     0.0  0.00   0.0   0.110   0.000   26.4    37    0.03   667    1     97.5   30 
21/11/21 11:30p   12.0   13.0   12.0    84    9.4   0.0   ---  0.00   0.0   ---   12.0   11.9   11.9   10.2  1035.1  0.00   0.0     0     0.00      0     0.0  0.00   0.0   0.132   0.000   26.4    37    0.00   683    1     99.9   30 
22/11/21 12:00a   11.1   12.0   11.1    87    9.0   0.0   ---  0.00   0.0   ---   11.1   11.2   11.2    9.4  1035.0  0.00   0.0     0     0.00      0     0.0  0.00   0.0   0.150   0.000   26.3    36    0.00   691    1    100.0   30 
22/11/21 12:30a   10.6   11.1   10.6    89    8.9   0.0   ---  0.00   0.0   ---   10.6   10.7   10.7    8.9  1034.6  0.00   0.0     0     0.00      0     0.0  0.00   0.0   0.161   0.000   25.9    37    0.00   644    1     94.2   30 
22/11/21  1:00a   10.1   10.6   10.1    90    8.5   0.0   ---  0.00   0.0   ---   10.1   10.2   10.2    8.4  1034.4  0.00   0.0     0     0.00      0     0.0  0.00   0.0   0.172   0.000   25.8    37    0.00   699    1    100.0   30 
22/11/21  1:30a    9.7   10.1    9.7    91    8.3   0.0   ---  0.00   0.0   ---    9.7    9.8    9.8    8.0  1034.5  0.00   0.0     0     0.00      0     0.0  0.00   0.0   0.181   0.000   25.7    37    0.00   684    1    100.0   30 
22/11/21  2:00a    9.3    9.7    9.3    92    8.1   0.0   ---  0.00   0.0   ---    9.3    9.6    9.6    7.7  1034.3  0.00   0.0     0     0.00      0     0.0  0.00   0.0   0.188   0.000   25.6    37    0.00   685    1    100.0   30 
22/11/21  2:30a    9.4    9.4    9.3    92    8.2   0.0   ---  0.00   0.0   ---    9.4    9.6    9.6    7.8  1034.3  0.00   0.0     0     0.00      0     0.0  0.00   0.0   0.186   0.000   25.5    37    0.00   696    1    100.0   30 
22/11/21  3:00a    9.0    9.4    9.0    93    7.9   0.0   ---  0.00   0.0   ---    9.0    9.2    9.2    7.3  1034.7  0.00   0.0     0     0.00      0     0.0  0.00   0.0   0.194   0.000   25.3    37    0.00   699    1    100.0   30 
22/11/21  3:30a    8.8    9.0    8.8    93    7.8   0.0   ---  0.00   0.0   ---    8.8    9.0    9.0    7.2  1035.0  0.00   0.0     0     0.00      0     0.0  0.00   0.0   0.198   0.000   25.2    37    0.00   700    1    100.0   30 
22/11/21  4:00a    8.4    8.8    8.4    93    7.3   0.0   ---  0.00   0.0   ---    8.4    8.6    8.6    6.7  1035.1  0.00   0.0     0     0.00      0     0.0  0.00   0.0   0.207   0.000   25.1    37    0.00   700    1    100.0   30 
22/11/21  4:30a    7.8    8.4    7.8    94    6.9   0.0   ---  0.00   0.0   ---    7.8    8.0    8.0    6.1  1035.2  0.00   0.0     0     0.00      0     0.0  0.00   0.0   0.219   0.000   24.9    37    0.00   703    1    100.0   30 
22/11/21  5:00a    7.8    7.9    7.8    94    6.9   0.0   ---  0.00   0.0   ---    7.8    8.0    8.0    6.1  1035.3  0.00   0.0     0     0.00      0     0.0  0.00   0.0   0.219   0.000   24.8    37    0.00   674    1     98.5   30 
22/11/21  5:30a    7.7    7.8    7.7    94    6.8   0.0   ---  0.00   0.0   ---    7.7    7.8    7.8    5.9  1035.4  0.00   0.0     0     0.00      0     0.0  0.00   0.0   0.222   0.000   24.7    36    0.00   702    1    100.0   30 
22/11/21  6:00a    7.4    7.7    7.4    94    6.5   0.0   ---  0.00   0.0   ---    7.4    7.6    7.6    5.7  1035.9  0.00   0.0     4     0.17     14     0.0  0.00   0.0   0.227   0.000   24.6    36    0.00   702    1    100.0   30 
22/11/21  6:30a    7.8    7.8    7.4    95    7.0   0.0   ---  0.00   0.0   ---    7.8    7.9    7.9    6.5  1036.2  0.25   0.0    34     1.46     49     0.0  0.00   0.0   0.220   0.000   24.5    36    0.00   701    1    100.0   30 
22/11/21  7:00a    7.9    7.9    7.7    95    7.2   0.0   ---  0.00   0.0   ---    7.9    8.1    8.1    6.9  1035.9  0.00   0.0    52     2.24    111     0.0  0.00   0.0   0.216   0.000   24.4    36    0.03   694    1    100.0   30 
22/11/21  7:30a    8.9    8.9    7.9    95    8.2   0.0   ---  0.00   0.0   ---    8.9    9.2    9.2    9.1  1035.8  0.00   0.0   141     6.06    204     0.0  0.00   0.0   0.196   0.000   24.4    36    0.00   694    1    100.0   30 
22/11/21  8:00a   10.0   10.0    8.9    96    9.4   0.0   ---  0.00   0.0   ---   10.0   10.3   10.3   12.5  1035.9  0.00   0.0   153     6.58    171     0.0  0.00   0.0   0.174   0.000   24.5    36    0.08   669    1     97.8   30 
22/11/21  8:30a   10.7   10.7   10.0    95    9.9   0.0   ---  0.00   0.0   ---   10.7   10.9   10.9   13.7  1036.0  0.00   0.0   186     8.00    244     0.3  0.06   0.6   0.160   0.000   24.6    36    0.00   693    1    100.0   30 
22/11/21  9:00a   11.3   11.3   10.7    93   10.2   0.0   ---  0.00   0.0   ---   11.3   11.4   11.4   14.9  1036.0  0.00   0.0   245    10.54    364     0.8  0.17   1.3   0.146   0.000   24.8    37    0.10   688    1    100.0   30 
22/11/21  9:30a   12.8   12.8   11.4    89   11.0   0.0   ---  0.00   0.0   ---   12.8   12.8   12.8   18.3  1035.9  0.00   0.0   453    19.48    693     1.9  0.41   2.6   0.116   0.000   25.1    37    0.00   692    1    100.0   30 
22/11/21 10:00a   14.7   14.7   12.8    78   10.9   0.0   ---  0.00   0.0   ---   14.7   14.5   14.5   21.1  1035.7  0.00   0.0   675    29.03   1127     2.6  0.56   3.7   0.076   0.000   25.4    37    0.28   685    1    100.0   30 
22/11/21 10:30a   15.1   15.1   14.6    75   10.7   0.0   ---  0.00   0.0   ---   15.1   14.8   14.8   21.6  1035.4  0.00   0.0   792    34.06    886     3.8  0.81   4.3   0.068   0.000   25.7    37    0.00   670    1     98.0   30 
22/11/21 11:00a   16.9   16.9   15.0    68   11.0   0.0   ---  0.00   0.0   ---   16.9   16.7   16.7   23.5  1035.1  0.00   0.0   888    38.19    919     4.8  1.03   5.2   0.029   0.000   26.1    37    0.43   684    1    100.0   30 
22/11/21 11:30a   17.9   18.0   16.9    61   10.3   0.0   ---  0.00   0.0   ---   17.9   17.5   17.5   24.1  1034.6  0.00   0.0   948    40.77    970     5.7  1.22   6.0   0.008   0.000   26.1    37    0.00   668    1     97.7   30 
22/11/21 12:00p   19.3   19.3   17.9    59   11.1   0.0   ---  0.00   0.0   ---   19.3   18.9   18.9   25.3  1034.3  0.00   0.0   989    42.53   1007     6.3  1.35   6.6   0.000   0.020   26.1    37    0.53   677    1     99.0   30 
22/11/21 12:30p   20.6   20.6   19.3    55   11.2   0.0   ---  0.00   0.0   ---   20.6   20.0   20.0   26.2  1034.0  0.00   0.0  1017    43.74   1034     6.8  1.46   7.0   0.000   0.046   26.2    37    0.00   629    1     92.0   30 
22/11/21  1:00p   21.3   21.3   20.6    53   11.4   0.0   ---  0.00   0.0   ---   21.3   20.6   20.6   26.7  1033.8  0.00   0.0  1034    44.47   1060     7.1  1.52   7.3   0.000   0.063   26.1    38    0.58   672    1     98.2   30 
22/11/21  1:30p   22.4   22.4   21.3    51   11.8   0.0   ---  0.00   0.0   ---   22.4   22.0   22.0   27.9  1033.3  0.00   0.0  1025    44.08   1079     7.0  1.50   7.3   0.000   0.084   26.1    38    0.00   663    1     96.9   30 
22/11/21  2:00p   22.8   23.1   22.4    50   11.8   0.0   ---  0.00   0.0   ---   22.8   22.5   22.5   28.1  1032.8  0.00   0.0   973    41.84   1076     6.4  1.37   7.2   0.000   0.093   26.2    38    0.58   666    1     97.4   30 
22/11/21  2:30p   23.2   23.2   22.7    50   12.2   0.0   ---  0.00   0.0   ---   23.2   22.9   22.9   28.6  1032.4  0.00   0.0   955    41.07   1060     6.2  1.33   6.9   0.000   0.101   26.2    38    0.00   684    1    100.0   30 
22/11/21  3:00p   23.5   23.6   22.7    51   12.8   0.0   ---  0.00   0.0   ---   23.5   23.4   23.4   29.0  1032.1  0.00   0.0   893    38.40   1042     5.5  1.18   6.2   0.000   0.108   26.2    39    0.56   689    1    100.0   30 
22/11/21  3:30p   23.5   23.7   23.2    52   13.1   0.0   ---  0.00   0.0   ---   23.5   23.5   23.5   29.3  1032.0  0.00   0.0   857    36.86    974     4.9  1.05   5.5   0.000   0.108   26.2    40    0.00   689    1    100.0   30 
22/11/21  4:00p   23.7   23.8   23.4    53   13.6   0.0   ---  0.00   0.0   ---   23.7   23.8   23.8   29.7  1031.4  0.00   0.0   747    32.13    867     3.9  0.84   4.3   0.000   0.112   26.2    40    0.48   689    1    100.0   30 
22/11/21  4:30p   23.9   24.0   23.4    54   14.1   0.0   ---  0.00   0.0   ---   23.9   24.2   24.2   30.7  1030.8  0.00   0.0   774    33.29    824     3.4  0.73   4.0   0.000   0.117   26.3    40    0.00   680    1     99.4   30 
22/11/21  5:00p   24.6   24.6   23.9    51   13.8   0.0   ---  0.00   0.0   ---   24.6   24.6   24.6   30.8  1030.5  0.00   0.0   649    27.91    733     2.6  0.56   3.1   0.000   0.131   26.1    41    0.43   681    1     99.6   30 
22/11/21  5:30p   24.0   24.7   24.0    53   13.8   0.0   ---  0.00   0.0   ---   24.0   24.2   24.2   29.8  1030.3  0.00   0.0   493    21.20    570     1.7  0.36   2.1   0.000   0.118   26.0    41    0.00   680    1     99.4   30 
22/11/21  6:00p   23.7   24.0   23.5    56   14.4   0.0   ---  0.00   0.0   ---   23.7   23.9   23.9   28.2  1030.4  0.00   0.0   291    12.51    345     1.0  0.21   1.2   0.000   0.111   25.9    41    0.25   669    1     97.8   30 
22/11/21  6:30p   22.3   23.7   22.3    63   14.9   0.0   ---  0.00   0.0   ---   22.3   22.4   22.4   26.6  1030.3  0.00   0.0   256    11.01    323     0.7  0.15   0.9   0.000   0.083   25.7    42    0.00   677    1     99.0   30 
22/11/21  7:00p   20.9   22.3   20.9    68   14.8   0.0   ---  0.00   0.0   ---   20.9   20.9   20.9   22.3  1030.3  0.00   0.0    99     4.26    220     0.0  0.00   0.5   0.000   0.053   25.7    43    0.10   663    1     96.9   30 
22/11/21  7:30p   20.2   20.9   20.2    72   15.0   0.0   ---  0.00   0.0   ---   20.2   20.6   20.6   20.2  1030.2  0.00   0.0    69     2.97     90     0.0  0.00   0.0   0.000   0.039   25.9    42    0.00   696    1    100.0   30 
22/11/21  8:00p   19.8   20.2   19.8    73   14.9   0.0   ---  0.00   0.0   ---   19.8   20.2   20.2   19.3  1029.9  0.00   0.0    30     1.29     49     0.0  0.00   0.0   0.000   0.031   26.1    42    0.03   695    1    100.0   30 
22/11/21  8:30p   19.1   19.8   19.1    76   14.8   0.0   ---  0.00   0.0   ---   19.1   19.5   19.5   18.2  1030.4  0.00   0.0     2     0.09     12     0.0  0.00   0.0   0.000   0.016   26.1    42    0.00   687    1    100.0   30 
22/11/21  9:00p   18.6   19.1   18.6    79   14.9   0.0   ---  0.00   0.0   ---   18.6   19.0   19.0   17.7  1030.9  0.00   0.0     0     0.00      0     0.0  0.00   0.0   0.000   0.006   26.1    42    0.00   641    1     93.7   30 
22/11/21  9:30p   18.1   18.6   18.1    81   14.8   0.0   ---  0.00   0.0   ---   18.1   18.4   18.4   17.1  1031.1  0.00   0.0     0     0.00      0     0.0  0.00   0.0   0.005   0.000   26.1    42    0.00   668    1     97.7   30 
22/11/21 10:00p   17.4   18.1   17.4    82   14.3   0.0   ---  0.00   0.0   ---   17.4   17.7   17.7   16.3  1031.2  0.00   0.0     0     0.00      0     0.0  0.00   0.0   0.019   0.000   26.1    42    0.03   665    1     97.2   30 
22/11/21 10:30p   16.7   17.4   16.7    85   14.1   0.0   ---  0.00   0.0   ---   16.7   16.8   16.8   15.5  1031.0  0.00   0.0     0     0.00      0     0.0  0.00   0.0   0.035   0.000   26.1    42    0.00   664    1     97.1   30 
22/11/21 11:00p   16.2   16.7   16.2    87   14.0   0.0   ---  0.00   0.0   ---   16.2   16.3   16.3   15.0  1031.0  0.00   0.0     0     0.00      0     0.0  0.00   0.0   0.045   0.000   26.2    42    0.03   675    1     98.7   30 
22/11/21 11:30p   15.6   16.2   15.6    88   13.6   0.0   ---  0.00   0.0   ---   15.6   15.7   15.7   14.3  1030.8  0.00   0.0     0     0.00      0     0.0  0.00   0.0   0.057   0.000   26.2    42    0.00   692    1    100.0   30 
23/11/21 12:00a   15.2   15.6   15.2    90   13.6   0.0   ---  0.00   0.0   ---   15.2   15.3   15.3   13.9  1030.9  0.00   0.0     0     0.00      0     0.0  0.00   0.0   0.065   0.000   26.2    42    0.00   699    1    100.0   30 
23/11/21 12:30a   14.8   15.3   14.8    90   13.2   0.0   ---  0.00   0.0   ---   14.8   14.9   14.9   13.6  1030.5  0.00   0.0     0     0.00      0     0.0  0.00   0.0   0.073   0.000   26.1    42    0.00   692    1    100.0   30 
23/11/21  1:00a   14.6   14.8   14.6    91   13.1   0.0   ---  0.00   0.0   ---   14.6   14.7   14.7   13.3  1030.1  0.00   0.0     0     0.00      0     0.0  0.00   0.0   0.079   0.000   26.1    42    0.00   692    1    100.0   30 
23/11/21  1:30a   14.2   14.6   14.2    92   12.9   0.0   ---  0.00   0.0   ---   14.2   14.3   14.3   12.9  1030.0  0.00   0.0     0     0.00      0     0.0  0.00   0.0   0.087   0.000   26.3    41    0.00   696    1    100.0   30 
23/11/21  2:00a   14.1   14.2   13.9    93   13.0   0.0   ---  0.00   0.0   ---   14.1   14.2   14.2   12.8  1029.8  0.00   0.0     0     0.00      0     0.0  0.00   0.0   0.088   0.000   26.1    41    0.00   699    1    100.0   30 
23/11/21  2:30a   13.9   14.2   13.9    93   12.8   0.0   ---  0.00   0.0   ---   13.9   14.1   14.1   12.7  1029.5  0.00   0.0     0     0.00      0     0.0  0.00   0.0   0.091   0.000   26.3    41    0.00   699    1    100.0   30 
23/11/21  3:00a   13.9   14.0   13.8    93   12.8   0.0   ---  0.00   0.0   ---   13.9   14.0   14.0   12.6  1029.7  0.00   0.0     0     0.00      0     0.0  0.00   0.0   0.093   0.000   26.4    41    0.00   692    1    100.0   30 
23/11/21  3:30a   13.7   13.9   13.7    93   12.6   0.0   ---  0.00   0.0   ---   13.7   13.8   13.8   12.4  1029.3  0.00   0.0     0     0.00      0     0.0  0.00   0.0   0.096   0.000   26.1    41    0.00   697    1    100.0   30 
23/11/21  4:00a   13.3   13.7   13.3    93   12.2   0.0   ---  0.00   0.0   ---   13.3   13.4   13.4   11.9  1028.9  0.00   0.0     0     0.00      0     0.0  0.00   0.0   0.105   0.000   26.1    41    0.00   676    1     98.8   30 
23/11/21  4:30a   13.0   13.3   13.0    94   12.1   0.0   ---  0.00   0.0   ---   13.0   13.1   13.1   11.7  1028.6  0.00   0.0     0     0.00      0     0.0  0.00   0.0   0.111   0.000   26.2    41    0.00   701    1    100.0   30 
23/11/21  5:00a   12.8   13.1   12.8    94   11.8   0.0   ---  0.00   0.0   ---   12.8   12.9   12.9   11.4  1028.6  0.00   0.0     0     0.00      0     0.0  0.00   0.0   0.116   0.000   26.2    41    0.00   703    1    100.0   30 
23/11/21  5:30a   12.5   12.8   12.5    94   11.6   0.0   ---  0.00   0.0   ---   12.5   12.6   12.6   11.2  1028.6  0.00   0.0     0     0.00      0     0.0  0.00   0.0   0.122   0.000   26.2    41    0.00   700    1    100.0   30 
23/11/21  6:00a   12.2   12.5   12.2    94   11.3   0.0   ---  0.00   0.0   ---   12.2   12.3   12.3   10.9  1028.7  0.00   0.0     1     0.04     11     0.0  0.00   0.0   0.127   0.000   26.1    40    0.00   697    1    100.0   30 
23/11/21  6:30a   12.4   12.4   12.2    95   11.7   0.0   ---  0.00   0.0   ---   12.4   12.6   12.6   11.4  1028.9  0.00   0.0    30     1.29     69     0.0  0.00   0.0   0.123   0.000   26.1    40    0.00   683    1     99.9   30 
23/11/21  7:00a   13.9   13.9   12.4    96   13.3   0.0   ---  0.00   0.0   ---   13.9   14.1   14.1   13.8  1029.2  0.00   0.0    91     3.91    123     0.0  0.00   0.0   0.091   0.000   26.1    40    0.03   670    1     98.0   30 
23/11/21  7:30a   14.9   14.9   14.0    95   14.1   0.0   ---  0.00   0.0   ---   14.9   15.1   15.1   15.4  1029.3  0.00   0.0   126     5.42    162     0.0  0.00   0.0   0.072   0.000   26.1    40    0.00   660    1     96.5   30 
23/11/21  8:00a   18.9   18.9   14.9    68   12.9   0.0   ---  0.00   0.0   ---   18.9   18.9   18.9   22.3  1029.4  0.00   0.0   218     9.38    371     0.4  0.09   0.7   0.000   0.012   26.2    40    0.10   642    1     93.9   30 
23/11/21  8:30a   20.3   20.3   18.9    61   12.5   0.0   ---  0.00   0.0   ---   20.3   20.1   20.1   24.3  1029.6  0.00   0.0   294    12.64    466     0.9  0.19   1.1   0.000   0.041   26.2    40    0.00   673    1     98.4   30 
23/11/21  9:00a   21.2   21.2   20.3    57   12.4   0.0   ---  0.00   0.0   ---   21.2   20.7   20.7   25.6  1029.9  0.00   0.0   350    15.05    464     1.4  0.30   1.6   0.000   0.060   26.1    40    0.20   683    1     99.9   30 
23/11/21  9:30a   21.1   21.2   20.9    58   12.5   0.0   ---  0.00   0.0   ---   21.1   20.6   20.6   25.1  1029.7  0.00   0.0   342    14.71    404     1.6  0.34   2.0   0.000   0.058   26.1    41    0.00   666    1     97.4   30 
23/11/21 10:00a   21.7   21.7   21.1    57   12.8   0.0   ---  0.00   0.0   ---   21.7   21.2   21.2   26.8  1029.6  0.00   0.0   501    21.55    689     2.6  0.56   3.2   0.000   0.069   26.0    41    0.25   676    1     98.8   30 
23/11/21 10:30a   22.0   22.3   21.7    55   12.5   0.0   ---  0.00   0.0   ---   22.0   21.6   21.6   27.4  1029.4  0.00   0.0   568    24.43    666     3.2  0.69   3.5   0.000   0.076   26.0    41    0.00   698    1    100.0   30 
23/11/21 11:00a   23.4   23.4   22.0    54   13.6   0.0   ---  0.00   0.0   ---   23.4   23.4   23.4   29.5  1029.3  0.00   0.0   708    30.45    817     4.2  0.90   4.6   0.000   0.105   26.0    42    0.38   681    1     99.6   30 
23/11/21 11:30a   23.3   23.4   23.2    55   13.7   0.0   ---  0.00   0.0   ---   23.3   23.4   23.4   28.9  1028.7  0.00   0.0   571    24.56    698     3.8  0.81   4.3   0.000   0.103   26.0    42    0.00   672    1     98.2   30 
23/11/21 12:00p   24.1   24.1   23.3    53   13.9   0.0   ---  0.00   0.0   ---   24.1   24.3   24.3   30.4  1028.4  0.00   0.0   718    30.88    904     4.8  1.03   5.8   0.000   0.120   26.1    42    0.41   653    1     95.5   30 
23/11/21 12:30p   24.8   24.8   23.9    52   14.3   0.0   ---  0.00   0.0   ---   24.8   24.8   24.8   30.9  1028.1  0.00   0.0   694    29.85    870     5.0  1.07   6.1   0.000   0.135   26.2    42    0.00   667    1     97.5   30 
23/11/21  1:00p   25.1   25.2   24.8    50   14.0   0.0   ---  0.00   0.0   ---   25.1   25.0   25.0   30.9  1028.0  0.00   0.0   641    27.57    911     4.7  1.01   6.2   0.000   0.141   26.2    43    0.41   679    1     99.3   30 
23/11/21  1:30p   24.5   25.1   24.4    53   14.3   0.0   ---  0.00   0.0   ---   24.5   24.6   24.6   28.4  1027.9  0.00   0.0   377    16.21    457     2.8  0.60   3.3   0.000   0.128   26.1    43    0.00   696    1    100.0   30 
23/11/21  2:00p   25.1   25.1   24.5    51   14.3   0.0   ---  0.00   0.0   ---   25.1   25.1   25.1   30.0  1027.7  0.00   0.0   510    21.93    575     3.7  0.79   4.0   0.000   0.141   25.9    44    0.28   683    1     99.9   30 
23/11/21  2:30p   24.7   25.1   24.7    53   14.4   0.0   ---  0.00   0.0   ---   24.7   24.7   24.7   29.5  1027.4  0.00   0.0   484    20.81    524     3.5  0.75   3.7   0.000   0.132   25.9    45    0.00   636    1     93.0   30 
23/11/21  3:00p   24.7   24.9   24.6    53   14.4   0.0   ---  0.00   0.0   ---   24.7   24.7   24.7   28.9  1027.2  0.00   0.0   417    17.93    445     2.8  0.60   3.0   0.000   0.132   25.9    44    0.28   678    1     99.1   30 
23/11/21  3:30p   25.2   25.3   24.6    52   14.6   0.0   ---  0.00   0.0   ---   25.2   25.2   25.2   29.7  1026.8  0.00   0.0   435    18.71    476     2.8  0.60   3.1   0.000   0.142   25.8    46    0.00   681    1     99.6   30 
23/11/21  4:00p   25.1   25.2   25.0    53   14.8   0.0   ---  0.00   0.0   ---   25.1   25.1   25.1   29.4  1026.5  0.00   0.0   408    17.55    424     2.4  0.51   2.6   0.000   0.140   25.9    45    0.00   669    1     97.8   30 
23/11/21  4:30p   25.3   25.3   25.1    52   14.8   0.0   ---  0.00   0.0   ---   25.3   25.4   25.4   29.7  1026.1  0.00   0.0   389    16.73    406     2.1  0.45   2.2   0.000   0.146   25.8    45    0.28   648    1     94.7   30 
23/11/21  5:00p   25.9   25.9   25.3    50   14.7   0.0   ---  0.00   0.0   ---   25.9   26.0   26.0   31.1  1025.9  0.00   0.0   428    18.41    478     2.0  0.43   2.2   0.000   0.159   25.8    46    0.25   673    1     98.4   30 
23/11/21  5:30p   25.3   25.9   25.3    51   14.5   0.0   ---  0.00   0.0   ---   25.3   25.3   25.3   28.7  1025.8  0.00   0.0   256    11.01    306     1.1  0.24   1.4   0.000   0.146   25.8    45    0.00   697    1    100.0   30 
23/11/21  6:00p   25.1   25.4   25.1    52   14.6   0.0   ---  0.00   0.0   ---   25.1   25.1   25.1   27.3  1025.7  0.00   0.0   166     7.14    225     0.6  0.13   0.9   0.000   0.141   25.8    46    0.15   699    1    100.0   30 
23/11/21  6:30p   24.7   25.1   24.7    53   14.4   0.0   ---  0.00   0.0   ---   24.7   24.7   24.7   26.4  1025.8  0.00   0.0   120     5.16    148     0.2  0.04   0.5   0.000   0.132   25.8    47    0.00   680    1     99.4   30 
23/11/21  7:00p   24.3   24.7   24.3    55   14.7   0.0   ---  0.00   0.0   ---   24.3   24.5   24.5   25.8  1026.2  0.00   0.0    91     3.91    111     0.0  0.00   0.0   0.000   0.125   25.8    45    0.08   678    1     99.1   30 
23/11/21  7:30p   23.7   24.4   23.7    60   15.4   0.0   ---  0.00   0.0   ---   23.7   24.1   24.1   24.4  1026.4  0.00   0.0    46     1.98     62     0.0  0.00   0.0   0.000   0.111   25.6    46    0.00   670    1     98.0   30 
23/11/21  8:00p   22.9   23.7   22.9    62   15.3   0.0   ---  0.00   0.0   ---   22.9   23.3   23.3   22.1  1026.4  0.00   0.0     7     0.30     25     0.0  0.00   0.0   0.000   0.096   25.6    48    0.03   694    1    100.0   30 
23/11/21  8:30p   22.3   22.9   22.3    66   15.6   0.0   ---  0.00   0.0   ---   22.3   22.5   22.5   21.2  1026.4  0.00   0.0     0     0.00      0     0.0  0.00   0.0   0.000   0.082   25.6    47    0.00   691    1    100.0   30 
23/11/21  9:00p   21.6   22.3   21.6    71   16.1   0.0   ---  0.00   0.0   ---   21.6   21.8   21.8   20.5  1026.5  0.00   0.0     0     0.00      0     0.0  0.00   0.0   0.000   0.067   25.7    47    0.00   674    1     98.5   30 
23/11/21  9:30p   21.0   21.6   21.0    75   16.4   0.0   ---  0.00   0.0   ---   21.0   21.4   21.4   20.2  1026.5  0.00   0.0     0     0.00      0     0.0  0.00   0.0   0.000   0.056   25.7    47    0.00   675    1     98.7   30 
23/11/21 10:00p   20.5   21.0   20.5    78   16.5   0.0   ---  0.00   0.0   ---   20.5   21.2   21.2   20.0  1026.6  0.00   0.0     0     0.00      0     0.0  0.00   0.0   0.000   0.045   25.8    47    0.03   681    1     99.6   30 
23/11/21 10:30p   20.5   20.5   20.4    77   16.3   0.0   ---  0.00   0.0   ---   20.5   21.2   21.2   19.9  1027.1  0.00   0.0     0     0.00      0     0.0  0.00   0.0   0.000   0.045   26.0    47    0.00   675    1     98.7   30 
23/11/21 11:00p   20.3   20.4   20.3    78   16.4   0.0   ---  0.00   0.0   ---   20.3   21.0   21.0   19.8  1026.9  0.00   0.0     0     0.00      0     0.0  0.00   0.0   0.000   0.042   26.0    47    0.03   675    1     98.7   30 
23/11/21 11:30p   20.4   20.5   20.3    76   16.1   0.0   ---  0.00   0.0   ---   20.4   21.1   21.1   19.8  1026.9  0.00   0.0     0     0.00      0     0.0  0.00   0.0   0.000   0.044   26.1    47    0.00   695    1    100.0   30 
24/11/21 12:00a   20.3   20.4   20.2    76   15.9   0.0   ---  0.00   0.0   ---   20.3   20.8   20.8   19.6  1026.8  0.00   0.0     0     0.00      0     0.0  0.00   0.0   0.000   0.041   26.1    47    0.03   699    1    100.0   30 
24/11/21 12:30a   20.1   20.3   20.1    77   15.9   0.0   ---  0.00   0.0   ---   20.1   20.7   20.7   19.4  1026.5  0.00   0.0     0     0.00      0     0.0  0.00   0.0   0.000   0.036   26.0    46    0.00   694    1    100.0   30 
24/11/21  1:00a   19.2   20.1   19.2    80   15.7   0.0   ---  0.00   0.0   ---   19.2   19.8   19.8   18.5  1026.6  0.00   0.0     0     0.00      0     0.0  0.00   0.0   0.000   0.019   26.0    46    0.03   662    1     96.8   30 
24/11/21  1:30a   19.0   19.2   18.9    82   15.9   0.0   ---  0.00   0.0   ---   19.0   19.6   19.6   18.3  1026.5  0.00   0.0     0     0.00      0     0.0  0.00   0.0   0.000   0.014   26.1    46    0.00   691    1    100.0   30 
24/11/21  2:00a   19.3   19.4   19.0    82   16.1   0.0   ---  0.00   0.0   ---   19.3   19.9   19.9   18.7  1026.4  0.00   0.0     0     0.00      0     0.0  0.00   0.0   0.000   0.020   26.1    46    0.03   698    1    100.0   30 
24/11/21  2:30a   19.1   19.3   19.1    82   16.0   0.0   ---  0.00   0.0   ---   19.1   19.7   19.7   18.4  1025.9  0.00   0.0     0     0.00      0     0.0  0.00   0.0   0.000   0.016   26.0    46    0.00   691    1    100.0   30 
24/11/21  3:00a   18.6   19.1   18.6    83   15.6   0.0   ---  0.00   0.0   ---   18.6   19.0   19.0   17.7  1025.7  0.00   0.0     0     0.00      0     0.0  0.00   0.0   0.000   0.005   26.0    46    0.03   682    1     99.7   30 
24/11/21  3:30a   17.7   18.6   17.7    86   15.3   0.0   ---  0.00   0.0   ---   17.7   18.1   18.1   16.8  1025.5  0.00   0.0     0     0.00      0     0.0  0.00   0.0   0.013   0.000   26.0    46    0.00   672    1     98.2   30 
24/11/21  4:00a   17.1   17.7   17.1    88   15.1   0.0   ---  0.00   0.0   ---   17.1   17.4   17.4   16.1  1025.3  0.00   0.0     0     0.00      0     0.0  0.00   0.0   0.027   0.000   26.1    45    0.00   680    1     99.4   30 
24/11/21  4:30a   16.7   17.1   16.7    90   15.0   0.0   ---  0.00   0.0   ---   16.7   16.9   16.9   15.7  1025.4  0.00   0.0     0     0.00      0     0.0  0.00   0.0   0.035   0.000   26.1    45    0.00   694    1    100.0   30 
24/11/21  5:00a   16.6   16.7   16.6    91   15.1   0.0   ---  0.00   0.0   ---   16.6   16.9   16.9   15.6  1025.4  0.00   0.0     0     0.00      0     0.0  0.00   0.0   0.036   0.000   26.1    45    0.00   679    1     99.3   30 
24/11/21  5:30a   16.5   16.6   16.5    92   15.2   0.0   ---  0.00   0.0   ---   16.5   16.8   16.8   15.5  1025.3  0.00   0.0     0     0.00      0     0.0  0.00   0.0   0.038   0.000   26.1    45    0.00   691    1    100.0   30 
24/11/21  6:00a   16.3   16.5   16.3    92   15.0   0.0   ---  0.00   0.0   ---   16.3   16.6   16.6   15.3  1025.5  0.00   0.0     1     0.04      5     0.0  0.00   0.0   0.042   0.000   26.0    45    0.00   654    1     95.6   30 
24/11/21  6:30a   16.2   16.3   16.2    93   15.0   0.0   ---  0.00   0.0   ---   16.2   16.4   16.4   15.4  1025.6  0.00   0.0    17     0.73     40     0.0  0.00   0.0   0.045   0.000   26.1    45    0.00   675    1     98.7   30 
24/11/21  7:00a   16.8   16.8   16.2    94   15.9   0.0   ---  0.00   0.0   ---   16.8   17.2   17.2   16.9  1025.9  0.00   0.0    73     3.14    104     0.0  0.00   0.0   0.031   0.000   26.1    45    0.03   660    1     96.5   30 
24/11/21  7:30a   17.3   17.3   16.8    93   16.2   0.0   ---  0.00   0.0   ---   17.3   17.8   17.8   17.7  1026.1  0.00   0.0    92     3.96    116     0.0  0.00   0.0   0.021   0.000   26.0    45    0.00   663    1     96.9   30 
24/11/21  8:00a   17.8   17.8   17.3    91   16.3   0.0   ---  0.00   0.0   ---   17.8   18.3   18.3   19.6  1026.3  0.00   0.0    84     3.61    367     0.1  0.02   0.8   0.010   0.000   26.1    45    0.05   686    1    100.0   30 
24/11/21  8:30a   20.7   20.7   17.8    81   17.3   0.0   ---  0.00   0.0   ---   20.7   21.5   21.5   28.4  1026.1  0.00   0.0   417    17.93    482     1.1  0.24   1.5   0.000   0.050   26.0    45    0.00   663    1     96.9   30 
24/11/21  9:00a   23.1   23.1   20.8    73   18.0   0.0   ---  0.00   0.0   ---   23.1   23.9   23.9   32.2  1026.1  0.00   0.0   574    24.69    737     1.8  0.39   2.2   0.000   0.098   26.1    45    0.28   445    1     65.1   30 
24/11/21  9:30a   23.9   24.2   23.1    68   17.7   0.0   ---  0.00   0.0   ---   23.9   24.8   24.8   31.3  1026.1  0.00   0.0   556    23.91    831     2.3  0.49   2.6   0.000   0.117   26.1    46    0.00   442    1     64.6   30 
24/11/21 10:00a   25.1   25.1   23.9    65   18.1   0.0   ---  0.00   0.0   ---   25.1   25.8   25.8   32.5  1025.8  0.00   0.0   656    28.21    954     2.9  0.62   3.6   0.000   0.141   26.2    46    0.36   376    1     55.0   30 
24/11/21 10:30a   25.6   25.9   25.2    63   18.0   0.0   ---  0.00   0.0   ---   25.6   26.3   26.3   32.6  1025.7  0.00   0.0   714    30.71    763     3.7  0.79   4.5   0.000   0.152   26.1    48    0.00   325    1     47.5   30 
24/11/21 11:00a   26.3   26.3   25.5    60   17.9   0.0   ---  0.00   0.0   ---   26.3   26.9   26.9   34.8  1025.4  0.00   0.0   961    41.33   1102     4.8  1.03   5.7   0.000   0.166   25.8    47    0.53   445    1     65.1   30 
24/11/21 11:30a   26.7   26.7   26.1    57   17.4   0.0   ---  0.00   0.0   ---   26.7   27.2   27.2   33.4  1025.4  0.00   0.0   683    29.37   1069     4.7  1.01   5.7   0.000   0.174   25.8    48    0.00   284    1     41.5   30 
24/11/21 12:00p   27.1   27.1   26.3    55   17.2   0.0   ---  0.00   0.0   ---   27.1   27.5   27.5   33.4  1025.2  0.00   0.0   901    38.75   1044     5.3  1.14   6.4   0.000   0.182   25.9    49    0.51   327    1     47.8   30 
24/11/21 12:30p   27.8   27.8   27.0    50   16.4   0.0   ---  0.00   0.0   ---   27.8   28.1   28.1   35.1  1024.8  0.00   0.0  1089    46.83   1238     6.4  1.37   7.3   0.000   0.197   25.9    47    0.00   338    1     49.4   30 
24/11/21  1:00p   26.2   27.8   26.2    57   17.0   0.0   ---  0.00   0.0   ---   26.2   26.6   26.6   28.8  1024.5  0.00   0.0   228     9.81    448     2.3  0.49   3.6   0.000   0.163   26.0    46    0.53   166    1     24.3   30 
24/11/21  1:30p   25.6   26.1   25.6    61   17.5   0.0   ---  0.00   0.0   ---   25.6   26.2   26.2   28.1  1024.5  0.00   0.0   207     8.90    290     1.5  0.32   1.7   0.000   0.152   25.9    47    0.00   153    1     22.4   30 
24/11/21  2:00p   25.6   25.6   25.2    64   18.3   0.0   ---  0.00   0.0   ---   25.6   26.3   26.3   31.0  1024.2  0.00   0.0   455    19.57    577     3.6  0.77   5.4   0.000   0.152   25.9    48    0.25   265    1     38.7   30 
24/11/21  2:30p   27.2   27.2   25.6    56   17.6   0.0   ---  0.00   0.0   ---   27.2   27.7   27.7   34.1  1023.7  0.00   0.0  1006    43.26   1160     6.6  1.41   7.0   0.000   0.184   26.0    47    0.00   373    1     54.5   30 
24/11/21  3:00p   26.4   27.2   26.4    58   17.5   0.0   ---  0.00   0.0   ---   26.4   26.9   26.9   30.9  1023.4  0.00   0.0   385    16.56    622     3.7  0.79   6.9   0.000   0.168   26.1    46    0.48   328    1     48.0   30 
24/11/21  3:30p   27.0   27.0   26.3    56   17.5   0.0   ---  0.00   0.0   ---   27.0   27.6   27.6   32.2  1022.9  0.00   0.0   447    19.22    696     3.2  0.69   4.2   0.000   0.181   26.1    46    0.00   415    1     60.7   30 
24/11/21  4:00p   27.2   27.3   27.0    56   17.6   0.0   ---  0.00   0.0   ---   27.2   27.7   27.7   30.9  1022.7  0.00   0.0   294    12.64    352     2.3  0.49   2.7   0.000   0.184   26.0    45    0.25   420    1     61.4   30 
24/11/21  4:30p   25.9   27.2   25.9    60   17.6   0.0   ---  0.00   0.0   ---   25.9   26.5   26.5   26.6  1022.7  0.00   0.0    63     2.71    134     0.2  0.04   0.9   0.000   0.159   26.0    47    0.00   459    1     67.1   30 
24/11/21  5:00p   22.4   25.9   22.4    82   19.2   0.0   ---  0.00   0.0   ---   22.4   23.4   23.4   23.3  1022.9  2.03   7.4    43     1.85     62     0.0  0.00   0.0   0.000   0.086   26.0    46    0.05   618    1     90.4   30 
24/11/21  5:30p   20.7   22.4   20.7    83   17.7   0.0   ---  0.00   0.0   ---   20.7   21.6   21.6   21.7  1023.2  0.00   0.0    55     2.37    141     0.0  0.00   0.0   0.000   0.050   25.9    49    0.00   598    1     87.4   30 
24/11/21  6:00p   19.8   20.7   19.8    84   17.0   0.0   ---  0.00   0.0   ---   19.8   20.6   20.6   20.9  1023.4  0.00   0.0    66     2.84     84     0.0  0.00   0.0   0.000   0.030   25.9    49    0.03   512    1     74.9   30 
24/11/21  6:30p   19.2   19.8   19.2    84   16.5   0.0   ---  0.00   0.0   ---   19.2   19.8   19.8   21.1  1023.9  0.00   0.0    96     4.13    104     0.0  0.00   0.0   0.000   0.019   25.8    48    0.00   510    1     74.6   30 
24/11/21  7:00p   18.7   19.2   18.7    84   16.0   0.0   ---  0.00   0.0   ---   18.7   19.2   19.2   20.1  1024.4  0.00   0.0    71     3.05     97     0.0  0.00   0.0   0.000   0.008   25.8    49    0.05   472    1     69.0   30 
24/11/21  7:30p   18.6   18.7   18.6    85   16.0   0.0   ---  0.00   0.0   ---   18.6   19.1   19.1   19.4  1024.8  0.00   0.0    49     2.11     58     0.0  0.00   0.0   0.000   0.005   25.7    52    0.00   478    1     69.9   30 
24/11/21  8:00p   18.3   18.6   18.3    86   15.9   0.0   ---  0.00   0.0   ---   18.3   18.8   18.8   17.8  1025.3  0.00   0.0    19     0.82     33     0.0  0.00   0.0   0.000   0.000   25.7    54    0.03   516    1     75.4   30 
24/11/21  8:30p   17.9   18.3   17.9    87   15.7   0.0   ---  0.00   0.0   ---   17.9   18.3   18.3   17.0  1025.5  0.00   0.0     0     0.00      0     0.0  0.00   0.0   0.009   0.000   25.7    55    0.00   545    1     79.7   30 
24/11/21  9:00p   17.3   17.9   17.3    89   15.5   0.0   ---  0.00   0.0   ---   17.3   17.7   17.7   16.4  1025.4  0.00   0.0     0     0.00      0     0.0  0.00   0.0   0.021   0.000   25.8    54    0.00   631    1     92.3   30 
24/11/21  9:30p   16.9   17.3   16.9    90   15.3   0.0   ---  0.00   0.0   ---   16.9   17.3   17.3   16.0  1025.9  0.00   0.0     0     0.00      0     0.0  0.00   0.0   0.029   0.000   25.7    55    0.00   647    1     94.6   30 
24/11/21 10:00p   16.7   16.9   16.7    91   15.2   0.0   ---  0.00   0.0   ---   16.7   17.1   17.1   15.8  1026.2  0.00   0.0     0     0.00      0     0.0  0.00   0.0   0.034   0.000   25.7    56    0.00   664    1     97.1   30 
24/11/21 10:30p   16.5   16.7   16.5    92   15.2   0.0   ---  0.00   0.0   ---   16.5   16.8   16.8   15.5  1026.4  0.00   0.0     0     0.00      0     0.0  0.00   0.0   0.038   0.000   25.7    56    0.00   599    1     87.6   30 
24/11/21 11:00p   16.3   16.5   16.3    92   15.0   0.0   ---  0.00   0.0   ---   16.3   16.6   16.6   15.3  1026.3  0.00   0.0     0     0.00      0     0.0  0.00   0.0   0.042   0.000   25.7    56    0.00   549    1     80.3   30 
24/11/21 11:30p   16.2   16.3   16.2    93   15.1   0.0   ---  0.00   0.0   ---   16.2   16.5   16.5   15.2  1026.4  0.00   0.0     0     0.00      0     0.0  0.00   0.0   0.044   0.000   26.0    54    0.00   528    1     77.2   30 
25/11/21 12:00a   16.1   16.3   16.1    93   15.0   0.0   ---  0.00   0.0   ---   16.1   16.4   16.4   15.1  1026.0  0.00   0.0     0     0.00      0     0.0  0.00   0.0   0.046   0.000   26.0    53    0.00   515    1     75.3   30 
25/11/21 12:30a   16.1   16.1   16.1    93   14.9   0.0   ---  0.00   0.0   ---   16.1   16.3   16.3   15.0  1025.8  0.00   0.0     0     0.00      0     0.0  0.00   0.0   0.047   0.000   25.9    53    0.00   524    1     76.6   30 
25/11/21  1:00a   16.1   16.1   16.1    93   15.0   0.0   ---  0.00   0.0   ---   16.1   16.4   16.4   15.1  1025.5  0.00   0.0     0     0.00      0     0.0  0.00   0.0   0.046   0.000   26.0    53    0.00   542    1     79.2   30 
25/11/21  1:30a   16.2   16.2   16.1    93   15.0   0.0   ---  0.00   0.0   ---   16.2   16.4   16.4   15.2  1025.5  0.00   0.0     0     0.00      0     0.0  0.00   0.0   0.045   0.000   26.0    52    0.00   536    1     78.4   30 
25/11/21  2:00a   16.0   16.2   16.0    92   14.7   0.0   ---  0.00   0.0   ---   16.0   16.2   16.2   14.9  1025.3  0.00   0.0     0     0.00      0     0.0  0.00   0.0   0.049   0.000   26.1    50    0.00   511    1     74.7   30 
25/11/21  2:30a   15.9   16.0   15.9    92   14.6   0.0   ---  0.00   0.0   ---   15.9   16.1   16.1   14.8  1025.4  0.00   0.0     0     0.00      0     0.0  0.00   0.0   0.051   0.000   25.9    51    0.00   526    1     76.9   30 
25/11/21  3:00a   15.8   15.9   15.8    91   14.3   0.0   ---  0.00   0.0   ---   15.8   16.0   16.0   14.7  1025.4  0.00   0.0     0     0.00      0     0.0  0.00   0.0   0.053   0.000   26.0    50    0.00   522    1     76.3   30 
25/11/21  3:30a   15.7   15.8   15.7    91   14.3   0.0   ---  0.00   0.0   ---   15.7   15.9   15.9   14.6  1025.2  0.00   0.0     0     0.00      0     0.0  0.00   0.0   0.054   0.000   25.9    50    0.00   513    1     75.0   30 
25/11/21  4:00a   15.7   15.7   15.7    91   14.2   0.0   ---  0.00   0.0   ---   15.7   15.8   15.8   14.5  1024.8  0.00   0.0     0     0.00      0     0.0  0.00   0.0   0.056   0.000   25.9    50    0.00   506    1     74.0   30 
25/11/21  4:30a   15.7   15.7   15.7    91   14.3   0.0   ---  0.00   0.0   ---   15.7   15.9   15.9   14.6  1024.6  0.00   0.0     0     0.00      0     0.0  0.00   0.0   0.054   0.000   25.9    50    0.00   536    1     78.4   30 
25/11/21  5:00a   15.7   15.8   15.7    91   14.3   0.0   ---  0.00   0.0   ---   15.7   15.9   15.9   14.6  1024.4  0.00   0.0     0     0.00      0     0.0  0.00   0.0   0.054   0.000   25.9    50    0.00   535    1     78.2   30 
25/11/21  5:30a   15.7   15.8   15.7    91   14.3   0.0   ---  0.00   0.0   ---   15.7   15.9   15.9   14.6  1024.6  0.00   0.0     0     0.00      0     0.0  0.00   0.0   0.054   0.000   25.9    49    0.00   526    1     76.9   30 
25/11/21  6:00a   15.8   15.8   15.7    91   14.3   0.0   ---  0.00   0.0   ---   15.8   16.0   16.0   14.7  1024.8  0.00   0.0     0     0.00      0     0.0  0.00   0.0   0.053   0.000   25.9    49    0.00   494    1     72.2   30 
25/11/21  6:30a   15.8   15.8   15.7    90   14.1   0.0   ---  0.00   0.0   ---   15.8   15.9   15.9   14.8  1024.8  0.00   0.0    13     0.56     26     0.0  0.00   0.0   0.053   0.000   26.1    48    0.00   431    1     63.0   30 
25/11/21  7:00a   16.0   16.0   15.8    90   14.4   0.0   ---  0.00   0.0   ---   16.0   16.2   16.2   15.1  1025.0  0.00   0.0    19     0.82     21     0.0  0.00   0.0   0.049   0.000   26.1    49    0.00   452    1     66.1   30 
25/11/21  7:30a   15.8   16.1   15.8    89   14.0   0.0   ---  0.00   0.0   ---   15.8   16.0   16.0   14.8  1025.1  0.00   0.0    15     0.65     21     0.0  0.00   0.0   0.052   0.000   26.1    49    0.00   475    1     69.4   30 
25/11/21  8:00a   15.9   15.9   15.8    89   14.1   0.0   ---  0.00   0.0   ---   15.9   16.1   16.1   15.8  1025.4  0.00   0.0    27     1.16     30     0.0  0.00   0.0   0.051   0.000   26.1    49    0.03   438    1     64.0   30 
25/11/21  8:30a   15.9   15.9   15.8    88   14.0   0.0   ---  0.00   0.0   ---   15.9   16.1   16.1   16.2  1025.8  0.00   0.0    49     2.11     67     0.0  0.00   0.0   0.050   0.000   26.2    49    0.00   343    1     50.1   30 
25/11/21  9:00a   16.1   16.1   16.0    87   13.9   0.0   ---  0.00   0.0   ---   16.1   16.3   16.3   16.9  1025.8  0.00   0.0    78     3.35     91     0.0  0.00   0.0   0.046   0.000   26.1    49    0.03   383    1     56.0   30 
25/11/21  9:30a   16.3   16.3   16.1    86   14.0   0.0   ---  0.00   0.0   ---   16.3   16.5   16.5   17.4  1025.8  0.00   0.0   105     4.52    123     0.2  0.04   0.6   0.042   0.000   26.2    48    0.00   329    1     48.1   30 
25/11/21 10:00a   16.4   16.4   16.3    85   13.9   0.0   ---  0.00   0.0   ---   16.4   16.6   16.6   16.9  1025.7  0.00   0.0    79     3.40     97     0.0  0.00   0.0   0.039   0.000   26.1    47    0.05   323    1     47.2   30 
25/11/21 10:30a   16.3   16.4   16.3    85   13.8   0.0   ---  0.00   0.0   ---   16.3   16.4   16.4   16.7  1025.7  0.00   0.0    86     3.70    109     0.3  0.06   0.6   0.042   0.000   26.0    48    0.00   335    1     49.0   30 
25/11/21 11:00a   16.3   16.4   16.2    84   13.6   0.0   ---  0.00   0.0   ---   16.3   16.4   16.4   16.7  1025.8  0.00   0.0    95     4.09    105     0.6  0.13   0.6   0.043   0.000   26.1    47    0.05   399    1     58.3   30 
25/11/21 11:30a   16.2   16.3   16.2    83   13.3   0.0   ---  0.00   0.0   ---   16.2   16.3   16.3   16.4  1026.1  0.00   0.0    84     3.61     88     0.5  0.11   0.6   0.044   0.000   26.0    48    0.00   428    1     62.6   30 
25/11/21 12:00p   16.2   16.3   16.2    83   13.3   0.0   ---  0.00   0.0   ---   16.2   16.3   16.3   16.7  1025.8  0.00   0.0   112     4.82    127     0.7  0.15   0.9   0.044   0.000   26.1    48    0.05   379    1     55.4   30 
25/11/21 12:30p   16.1   16.3   16.1    83   13.2   0.0   ---  0.00   0.0   ---   16.1   16.1   16.1   15.9  1025.8  0.00   0.0    66     2.84     77     0.1  0.02   0.5   0.047   0.000   26.0    48    0.00   358    1     52.3   30 
25/11/21  1:00p   16.1   16.1   15.9    84   13.4   0.0   ---  0.00   0.0   ---   16.1   16.2   16.2   16.2  1025.7  0.00   0.0    79     3.40    100     0.5  0.11   0.7   0.047   0.000   26.1    47    0.05   302    1     44.2   30 
25/11/21  1:30p   16.2   16.2   16.1    83   13.3   0.0   ---  0.00   0.0   ---   16.2   16.2   16.2   16.7  1025.4  0.00   0.0   116     4.99    151     0.8  0.17   1.2   0.045   0.000   26.1    48    0.00   320    1     46.8   30 
25/11/21  2:00p   15.9   16.2   15.9    84   13.2   0.0   ---  0.00   0.0   ---   15.9   15.9   15.9   16.0  1025.3  0.00   0.0    85     3.66    102     0.6  0.13   0.7   0.051   0.000   26.2    47    0.05   395    1     57.7   30 
25/11/21  2:30p   15.7   15.9   15.6    84   13.0   0.0   ---  0.00   0.0   ---   15.7   15.7   15.7   15.7  1025.3  0.00   0.0    81     3.48    121     0.4  0.09   0.8   0.056   0.000   26.1    48    0.00   337    1     49.3   30 
25/11/21  3:00p   16.0   16.1   15.7    82   12.9   0.0   ---  0.00   0.0   ---   16.0   16.1   16.1   16.8  1025.2  0.00   0.0   131     5.63    258     0.8  0.17   1.9   0.049   0.000   26.1    48    0.00   326    1     47.7   30 
25/11/21  3:30p   15.2   16.0   15.2    85   12.7   0.0   ---  0.00   0.0   ---   15.2   15.2   15.2   14.8  1025.3  0.00   0.0    54     2.32     72     0.0  0.00   0.0   0.066   0.000   26.0    47    0.05   420    1     61.4   30 
25/11/21  4:00p   14.8   15.2   14.8    87   12.6   0.0   ---  0.00   0.0   ---   14.8   14.8   14.8   14.3  1025.6  0.00   0.0    42     1.81     56     0.0  0.00   0.0   0.074   0.000   26.1    47    0.03   434    1     63.5   30 
25/11/21  4:30p   14.1   14.8   14.1    89   12.3   0.0   ---  0.00   0.0   ---   14.1   14.1   14.1   13.7  1025.7  0.00   0.0    46     1.98     65     0.0  0.00   0.0   0.089   0.000   26.1    46    0.00   458    1     67.0   30 
25/11/21  5:00p   14.2   14.2   14.0    89   12.4   0.0   ---  0.00   0.0   ---   14.2   14.2   14.2   13.8  1025.7  0.00   0.0    44     1.89     67     0.0  0.00   0.0   0.087   0.000   26.0    47    0.00   510    1     74.6   30 
25/11/21  5:30p   14.5   14.5   14.2    84   11.8   0.0   ---  0.00   0.0   ---   14.5   14.4   14.4   14.1  1025.6  0.00   0.0    43     1.85     53     0.0  0.00   0.0   0.080   0.000   26.0    47    0.03   508    1     74.3   30 
25/11/21  6:00p   14.6   14.7   14.5    83   11.7   0.0   ---  0.00   0.0   ---   14.6   14.5   14.5   13.9  1025.6  0.00   0.0    25     1.08     28     0.0  0.00   0.0   0.079   0.000   26.1    46    0.03   547    1     80.0   30 
25/11/21  6:30p   14.4   14.6   14.4    82   11.4   0.0   ---  0.00   0.0   ---   14.4   14.3   14.3   13.7  1025.9  0.00   0.0    24     1.03     28     0.0  0.00   0.0   0.082   0.000   26.2    46    0.00   547    1     80.0   30 
25/11/21  7:00p   14.4   14.4   14.3    80   11.0   0.0   ---  0.00   0.0   ---   14.4   14.3   14.3   13.8  1026.2  0.00   0.0    25     1.08     30     0.0  0.00   0.0   0.081   0.000   26.1    46    0.03   544    1     79.5   30 
25/11/21  7:30p   14.4   14.4   14.4    80   11.0   0.0   ---  0.00   0.0   ---   14.4   14.3   14.3   13.8  1026.5  0.00   0.0    21     0.90     28     0.0  0.00   0.0   0.081   0.000   26.0    45    0.00   501    1     73.2   30 
25/11/21  8:00p   14.5   14.5   14.4    78   10.7   0.0   ---  0.00   0.0   ---   14.5   14.3   14.3   13.2  1026.8  0.00   0.0    17     0.73     26     0.0  0.00   0.0   0.080   0.000   26.2    44    0.03   517    1     75.6   30 
25/11/21  8:30p   14.6   14.6   14.5    77   10.6   0.0   ---  0.00   0.0   ---   14.6   14.3   14.3   13.0  1027.1  0.00   0.0     6     0.26      9     0.0  0.00   0.0   0.079   0.000   26.2    45    0.00   517    1     75.6   30 
25/11/21  9:00p   14.6   14.6   14.6    76   10.4   0.0   ---  0.00   0.0   ---   14.6   14.4   14.4   13.0  1027.3  0.00   0.0     0     0.00      0     0.0  0.00   0.0   0.078   0.000   26.1    44    0.00   520    1     76.0   30 
25/11/21  9:30p   14.6   14.6   14.6    76   10.4   0.0   ---  0.00   0.0   ---   14.6   14.3   14.3   12.9  1027.5  0.00   0.0     0     0.00      0     0.0  0.00   0.0   0.079   0.000   26.3    44    0.00   510    1     74.6   30 
25/11/21 10:00p   14.6   14.6   14.6    77   10.6   0.0   ---  0.00   0.0   ---   14.6   14.4   14.4   13.0  1027.8  0.00   0.0     0     0.00      0     0.0  0.00   0.0   0.078   0.000   26.2    44    0.03   511    1     74.7   30 
25/11/21 10:30p   14.6   14.7   14.6    78   10.8   0.0   ---  0.00   0.0   ---   14.6   14.4   14.4   13.1  1027.8  0.00   0.0     0     0.00      0     0.0  0.00   0.0   0.078   0.000   26.2    43    0.00   513    1     75.0   30 
25/11/21 11:00p   14.5   14.6   14.5    78   10.7   0.0   ---  0.00   0.0   ---   14.5   14.3   14.3   12.9  1027.9  0.00   0.0     0     0.00      0     0.0  0.00   0.0   0.080   0.000   26.1    43    0.03   504    1     73.7   30 
25/11/21 11:30p   14.1   14.5   14.1    81   10.9   0.0   ---  0.00   0.0   ---   14.1   14.0   14.0   12.6  1027.8  0.00   0.0     0     0.00      0     0.0  0.00   0.0   0.088   0.000   26.3    43    0.00   488    1     71.3   30 
26/11/21 12:00a   13.7   14.1   13.7    85   11.2   0.0   ---  0.00   0.0   ---   13.7   13.6   13.6   12.2  1028.0  0.00   0.0     0     0.00      0     0.0  0.00   0.0   0.097   0.000   26.4    43    0.03   525    1     76.8   30 
26/11/21 12:30a   13.2   13.7   13.2    89   11.4   0.0   ---  0.00   0.0   ---   13.2   13.2   13.2   11.8  1027.9  0.00   0.0     0     0.00      0     0.0  0.00   0.0   0.108   0.000   26.1    43    0.00   586    1     85.7   30 
26/11/21  1:00a   13.1   13.2   13.1    90   11.5   0.0   ---  0.00   0.0   ---   13.1   13.1   13.1   11.7  1027.7  0.00   0.0     0     0.00      0     0.0  0.00   0.0   0.110   0.000   26.2    43    0.00   586    1     85.7   30 
26/11/21  1:30a   13.0   13.1   13.0    89   11.2   0.0   ---  0.00   0.0   ---   13.0   13.1   13.1   11.7  1027.5  0.00   0.0     0     0.00      0     0.0  0.00   0.0   0.111   0.000   26.2    43    0.00   556    1     81.3   30 
26/11/21  2:00a   12.9   13.0   12.9    90   11.3   0.0   ---  0.00   0.0   ---   12.9   13.0   13.0   11.6  1027.3  0.00   0.0     0     0.00      0     0.0  0.00   0.0   0.112   0.000   26.3    42    0.00   613    1     89.6   30 
26/11/21  2:30a   12.8   12.9   12.8    91   11.3   0.0   ---  0.00   0.0   ---   12.8   12.8   12.8   11.4  1027.2  0.00   0.0     0     0.00      0     0.0  0.00   0.0   0.116   0.000   26.3    42    0.00   540    1     78.9   30 
26/11/21  3:00a   12.7   12.8   12.7    93   11.6   0.0   ---  0.00   0.0   ---   12.7   12.8   12.8   11.4  1027.0  0.00   0.0     0     0.00      0     0.0  0.00   0.0   0.118   0.000   26.3    42    0.00   526    1     76.9   30 
26/11/21  3:30a   12.6   12.7   12.6    94   11.6   0.0   ---  0.00   0.0   ---   12.6   12.7   12.7   11.3  1026.9  0.25   0.0     0     0.00      0     0.0  0.00   0.0   0.120   0.000   26.3    42    0.00   607    1     88.7   30 
26/11/21  4:00a   12.5   12.6   12.5    94   11.6   0.0   ---  0.00   0.0   ---   12.5   12.6   12.6   11.2  1027.0  0.00   0.0     0     0.00      0     0.0  0.00   0.0   0.122   0.000   26.3    42    0.00   634    1     92.7   30 
26/11/21  4:30a   12.5   12.5   12.5    94   11.6   0.0   ---  0.00   0.0   ---   12.5   12.6   12.6   11.2  1027.2  0.00   0.0     0     0.00      0     0.0  0.00   0.0   0.122   0.000   26.3    42    0.00   640    1     93.6   30 
26/11/21  5:00a   12.6   12.6   12.5    95   11.8   0.0   ---  0.00   0.0   ---   12.6   12.7   12.7   11.3  1027.4  0.00   0.0     0     0.00      0     0.0  0.00   0.0   0.120   0.000   26.3    42    0.00   611    1     89.3   30 
26/11/21  5:30a   12.6   12.7   12.6    95   11.8   0.0   ---  0.00   0.0   ---   12.6   12.7   12.7   11.4  1027.5  0.00   0.0     0     0.00      0     0.0  0.00   0.0   0.119   0.000   26.3    42    0.00   624    1     91.2   30 
26/11/21  6:00a   12.7   12.7   12.6    94   11.8   0.0   ---  0.00   0.0   ---   12.7   12.8   12.8   11.5  1027.7  0.00   0.0     0     0.00      0     0.0  0.00   0.0   0.117   0.000   26.2    42    0.00   638    1     93.3   30 
26/11/21  6:30a   12.9   12.9   12.7    94   12.0   0.0   ---  0.00   0.0   ---   12.9   13.1   13.1   11.9  1027.8  0.00   0.0    16     0.69     35     0.0  0.00   0.0   0.112   0.000   26.2    42    0.00   593    1     86.7   30 
26/11/21  7:00a   13.4   13.4   12.9    94   12.4   0.0   ---  0.00   0.0   ---   13.4   13.5   13.5   13.0  1028.0  0.00   0.0    61     2.62     90     0.0  0.00   0.0   0.103   0.000   26.2    42    0.03   541    1     79.1   30 
26/11/21  7:30a   13.7   13.7   13.4    93   12.6   0.0   ---  0.00   0.0   ---   13.7   13.8   13.8   13.3  1028.3  0.00   0.0    68     2.92    100     0.0  0.00   0.0   0.097   0.000   26.2    42    0.00   562    1     82.2   30 
26/11/21  8:00a   14.2   14.2   13.7    93   13.1   0.0   ---  0.00   0.0   ---   14.2   14.3   14.3   16.6  1028.2  0.00   0.0   141     6.06    207     0.0  0.00   0.5   0.086   0.000   26.2    43    0.05   513    1     75.0   30 
26/11/21  8:30a   14.9   14.9   14.2    92   13.6   0.0   ---  0.00   0.0   ---   14.9   15.1   15.1   18.2  1028.5  0.00   0.0   193     8.30    283     0.6  0.13   1.0   0.072   0.000   26.3    43    0.00   480    1     70.2   30 
26/11/21  9:00a   15.6   15.6   14.9    88   13.6   0.0   ---  0.00   0.0   ---   15.6   15.7   15.7   18.8  1028.6  0.00   0.0   214     9.20    260     0.9  0.19   1.2   0.058   0.000   26.3    43    0.10   388    1     56.7   30 
26/11/21  9:30a   15.9   15.9   15.6    85   13.4   0.0   ---  0.00   0.0   ---   15.9   16.0   16.0   18.7  1028.6  0.00   0.0   215     9.25    257     1.1  0.24   1.3   0.051   0.000   26.3    44    0.00   280    1     40.9   30 
26/11/21 10:00a   16.1   16.2   15.9    84   13.4   0.0   ---  0.00   0.0   ---   16.1   16.2   16.2   19.7  1028.9  0.00   0.0   291    12.51    325     1.5  0.32   1.9   0.047   0.000   26.2    44    0.13   277    1     40.5   30 
26/11/21 10:30a   16.7   16.7   16.1    80   13.3   0.0   ---  0.00   0.0   ---   16.7   16.8   16.8   20.2  1029.0  0.00   0.0   305    13.12    452     2.0  0.43   2.6   0.034   0.000   26.2    44    0.00   277    1     40.5   30 
26/11/21 11:00a    ---   17.0   16.7   ---    ---   0.0   ---  0.00   0.0   ---    ---    ---    ---    ---  1029.1  0.25   0.0   300    12.90    360     2.1  0.45   2.4     ---     ---   26.7    44    0.00   124    1     18.1   30 
26/11/21 11:30a   17.9   17.9   17.7    70   12.4   0.0   ---  0.00   0.0   ---   17.9   17.9   17.9   23.3  1029.3  0.00   0.0   567    24.38    659     4.3  0.92   5.5   0.008   0.000   26.2    44    0.00   294    1     43.0   30 
26/11/21 12:00p   18.0   18.1   17.8    69   12.2   0.0   ---  0.00   0.0   ---   18.0   17.9   17.9   22.7  1029.4  0.00   0.0   494    21.24    865     4.0  0.86   6.9   0.007   0.000   26.2    44    0.25   455    1     66.5   30 
26/11/21 12:30p   18.9   18.9   18.0    68   12.9   0.0   ---  0.00   0.0   ---   18.9   18.9   18.9   25.1  1029.4  0.00   0.0   725    31.18   1296     5.8  1.24   8.4   0.000   0.012   26.1    44    0.00   548    1     80.1   30 
26/11/21  1:00p   18.8   18.9   18.6    67   12.5   0.0   ---  0.00   0.0   ---   18.8   18.7   18.7   24.1  1029.6  0.00   0.0   576    24.77    765     4.7  1.01   5.5   0.000   0.009   26.1    44    0.38   489    1     71.5   30 
26/11/21  1:30p   19.2   19.2   18.3    66   12.7   0.0   ---  0.00   0.0   ---   19.2   19.2   19.2   24.8  1029.7  0.00   0.0   608    26.15   1172     5.8  1.24   8.7   0.000   0.017   26.1    44    0.00   480    1     70.2   30 
26/11/21  2:00p   19.2   19.4   18.9    64   12.2   0.0   ---  0.00   0.0   ---   19.2   19.1   19.1   25.3  1029.9  0.00   0.0   780    33.54   1004     6.6  1.41   8.3   0.000   0.017   26.2    44    0.43   427    1     62.4   30 
26/11/21  2:30p   19.3   19.3   19.1    62   11.9   0.0   ---  0.00   0.0   ---   19.3   19.2   19.2   25.4  1030.1  0.00   0.0   791    34.02   1223     6.3  1.35   7.8   0.000   0.021   25.9    45    0.00   447    1     65.4   30 
26/11/21  3:00p   19.1   19.8   18.8    62   11.6   0.0   ---  0.00   0.0   ---   19.1   18.8   18.8   24.7  1030.0  0.00   0.0   664    28.56   1048     4.1  0.88   6.3   0.000   0.015   25.9    45    0.41   478    1     69.9   30 
26/11/21  3:30p   19.4   19.8   19.1    59   11.2   0.0   ---  0.00   0.0   ---   19.4   19.1   19.1   23.3  1029.9  0.00   0.0   427    18.36   1000     3.4  0.73   6.2   0.000   0.022   25.8    45    0.00   410    1     59.9   30 
26/11/21  4:00p   19.1   19.4   18.9    61   11.4   0.0   ---  0.00   0.0   ---   19.1   18.8   18.8   21.8  1030.0  0.00   0.0   302    12.99    515     2.6  0.56   5.4   0.000   0.015   25.8    45    0.25   418    1     61.1   30 
26/11/21  4:30p   18.9   19.0   18.5    63   11.7   0.0   ---  0.00   0.0   ---   18.9   18.7   18.7   22.8  1030.2  0.00   0.0   374    16.08    875     2.5  0.54   3.9   0.000   0.013   26.1    44    0.00   479    1     70.0   30 
26/11/21  5:00p   18.3   19.2   18.3    65   11.6   0.0   ---  0.00   0.0   ---   18.3   18.1   18.1   22.4  1030.7  0.00   0.0   375    16.13    831     1.9  0.41   3.4   0.001   0.000   26.0    44    0.23   496    1     72.5   30 
26/11/21  5:30p   17.1   18.3   17.1    67   10.9   0.0   ---  0.00   0.0   ---   17.1   16.8   16.8   20.1  1031.1  0.00   0.0   259    11.14    334     1.3  0.28   1.8   0.025   0.000   26.0    43    0.00   502    1     73.4   30 
26/11/21  6:00p   16.4   17.2   16.4    69   10.7   0.0   ---  0.00   0.0   ---   16.4   16.1   16.1   19.0  1031.6  0.00   0.0   214     9.20    343     0.6  0.13   1.5   0.039   0.000   26.1    43    0.15   372    1     54.4   30 
26/11/21  6:30p   16.7   16.8   16.4    68   10.7   0.0   ---  0.00   0.0   ---   16.7   16.3   16.3   20.4  1031.9  0.00   0.0   266    11.44    383     0.6  0.13   0.7   0.035   0.000   26.1    43    0.00   354    1     51.8   30 
26/11/21  7:00p   15.9   16.8   15.9    68   10.0   0.0   ---  0.00   0.0   ---   15.9   15.6   15.6   18.2  1032.6  0.00   0.0   172     7.40    213     0.0  0.00   0.0   0.050   0.000   26.1    43    0.13   346    1     50.6   30 
26/11/21  7:30p   15.8   16.0   15.8    68    9.9   0.0   ---  0.00   0.0   ---   15.8   15.4   15.4   16.4  1033.1  0.00   0.0    96     4.13    121     0.0  0.00   0.0   0.052   0.000   26.0    43    0.00   347    1     50.7   30 
26/11/21  8:00p   15.5   15.8   15.5    68    9.6   0.0   ---  0.00   0.0   ---   15.5   15.1   15.1   14.0  1033.4  0.00   0.0    52     2.24     79     0.0  0.00   0.0   0.059   0.000   26.0    42    0.05   391    1     57.2   30 
26/11/21  8:30p   14.8   15.5   14.8    70    9.4   0.0   ---  0.00   0.0   ---   14.8   14.4   14.4   12.7  1033.9  0.00   0.0     9     0.39     21     0.0  0.00   0.0   0.074   0.000   26.0    42    0.00   358    1     52.3   30 
26/11/21  9:00p   14.3   14.8   14.3    72    9.3   0.0   ---  0.00   0.0   ---   14.3   13.9   13.9   12.2  1034.3  0.00   0.0     0     0.00      0     0.0  0.00   0.0   0.083   0.000   26.1    42    0.00   380    1     55.6   30 
26/11/21  9:30p   14.0   14.3   14.0    71    8.8   0.0   ---  0.00   0.0   ---   14.0   13.6   13.6   11.8  1034.7  0.00   0.0     0     0.00      0     0.0  0.00   0.0   0.090   0.000   26.1    41    0.00   399    1     58.3   30 
26/11/21 10:00p   13.4   14.0   13.4    72    8.5   0.0   ---  0.00   0.0   ---   13.4   13.1   13.1   11.3  1035.0  0.00   0.0     0     0.00      0     0.0  0.00   0.0   0.102   0.000   26.3    40    0.00   426    1     62.3   30 
26/11/21 10:30p   13.2   13.4   13.2    72    8.3   0.0   ---  0.00   0.0   ---   13.2   12.8   12.8   11.1  1035.1  0.00   0.0     0     0.00      0     0.0  0.00   0.0   0.106   0.000   26.1    41    0.03   495    1     72.4   30 
26/11/21 11:00p   12.9   13.2   12.9    74    8.4   0.0   ---  0.00   0.0   ---   12.9   12.6   12.6   10.8  1035.0  0.00   0.0     0     0.00      0     0.0  0.00   0.0   0.112   0.000   26.2    40    0.03   530    1     77.5   30 
26/11/21 11:30p   12.7   12.9   12.7    75    8.3   0.0   ---  0.00   0.0   ---   12.7   12.4   12.4   10.6  1034.9  0.00   0.0     0     0.00      0     0.0  0.00   0.0   0.118   0.000   26.3    40    0.00   512    1     74.9   30 
27/11/21 12:00a   12.4   12.7   12.4    77    8.5   0.0   ---  0.00   0.0   ---   12.4   12.2   12.2   10.4  1034.8  0.00   0.0     0     0.00      0     0.0  0.00   0.0   0.124   0.000   26.3    40    0.03   467    1     68.3   30 
27/11/21 12:30a   11.9   12.4   11.9    79    8.4   0.0   ---  0.00   0.0   ---   11.9   11.8   11.8   10.0  1034.7  0.00   0.0     0     0.00      0     0.0  0.00   0.0   0.133   0.000   26.2    40    0.00   467    1     68.3   30 
27/11/21  1:00a   11.6   11.9   11.6    81    8.5   0.0   ---  0.00   0.0   ---   11.6   11.5   11.5    9.7  1034.7  0.00   0.0     0     0.00      0     0.0  0.00   0.0   0.140   0.000   26.2    40    0.03   461    1     67.4   30 
27/11/21  1:30a   11.6   11.7   11.6    81    8.5   0.0   ---  0.00   0.0   ---   11.6   11.5   11.5    9.7  1034.5  0.00   0.0     0     0.00      0     0.0  0.00   0.0   0.140   0.000   26.2    39    0.00   467    1     68.3   30 
27/11/21  2:00a   11.5   11.6   11.5    83    8.7   0.0   ---  0.00   0.0   ---   11.5   11.4   11.4    9.7  1034.5  0.00   0.0     0     0.00      0     0.0  0.00   0.0   0.142   0.000   26.0    39    0.03   497    1     72.7   30 
27/11/21  2:30a   11.7   11.7   11.5    83    8.9   0.0   ---  0.00   0.0   ---   11.7   11.6   11.6    9.8  1034.1  0.00   0.0     0     0.00      0     0.0  0.00   0.0   0.139   0.000   26.0    39    0.00   499    1     73.0   30 
27/11/21  3:00a   11.6   11.7   11.6    82    8.6   0.0   ---  0.00   0.0   ---   11.6   11.4   11.4    9.7  1033.9  0.00   0.0     0     0.00      0     0.0  0.00   0.0   0.141   0.000   25.9    39    0.00   511    1     74.7   30 
27/11/21  3:30a   11.5   11.7   11.5    81    8.4   0.0   ---  0.00   0.0   ---   11.5   11.4   11.4    9.6  1033.9  0.00   0.0     0     0.00      0     0.0  0.00   0.0   0.142   0.000   25.9    39    0.00   493    1     72.1   30 
27/11/21  4:00a   11.3   11.5   11.2    82    8.3   0.0   ---  0.00   0.0   ---   11.3   11.2   11.2    9.4  1033.9  0.00   0.0     0     0.00      0     0.0  0.00   0.0   0.147   0.000   25.8    39    0.03   493    1     72.1   30 
27/11/21  4:30a   11.3   11.3   11.2    82    8.3   0.0   ---  0.00   0.0   ---   11.3   11.2   11.2    9.4  1034.0  0.00   0.0     0     0.00      0     0.0  0.00   0.0   0.147   0.000   25.7    39    0.00   496    1     72.5   30 
27/11/21  5:00a   10.9   11.3   10.9    82    8.0   0.0   ---  0.00   0.0   ---   10.9   10.9   10.9    9.1  1034.1  0.00   0.0     0     0.00      0     0.0  0.00   0.0   0.154   0.000   25.6    39    0.03   503    1     73.5   30 
27/11/21  5:30a   10.4   10.9   10.4    84    7.9   0.0   ---  0.00   0.0   ---   10.4   10.4   10.4    8.7  1034.1  0.00   0.0     0     0.00      0     0.0  0.00   0.0   0.164   0.000   25.5    39    0.00   495    1     72.4   30 
27/11/21  6:00a   10.2   10.4   10.2    86    7.9   0.0   ---  0.00   0.0   ---   10.2   10.2   10.2    8.4  1034.5  0.00   0.0     4     0.17     12     0.0  0.00   0.0   0.170   0.000   25.4    39    0.00   500    1     73.1   30 
27/11/21  6:30a   10.5   10.5   10.1    86    8.3   0.0   ---  0.00   0.0   ---   10.5   10.6   10.6    9.1  1034.7  0.00   0.0    27     1.16     56     0.0  0.00   0.0   0.163   0.000   25.4    39    0.00   509    1     74.4   30 
27/11/21  7:00a   11.9   11.9   10.5    83    9.1   0.0   ---  0.00   0.0   ---   11.9   11.8   11.8   11.3  1035.1  0.00   0.0   106     4.56    156     0.0  0.00   0.0   0.134   0.000   25.3    38    0.03   490    1     71.6   30 
27/11/21  7:30a   13.0   13.0   11.9    79    9.4   0.0   ---  0.00   0.0   ---   13.0   12.8   12.8   13.7  1035.4  0.00   0.0   211     9.07    269     0.0  0.00   0.0   0.111   0.000   25.4    38    0.00   431    1     63.0   30 
27/11/21  8:00a   14.0   14.0   13.0    74    9.4   0.0   ---  0.00   0.0   ---   14.0   13.7   13.7   19.1  1035.8  0.00   0.0   315    13.55    371     0.5  0.11   0.7   0.090   0.000   25.4    38    0.13   454    1     66.4   30 
27/11/21  8:30a   15.6   15.6   14.1    68    9.7   0.0   ---  0.00   0.0   ---   15.6   15.2   15.2   22.2  1035.9  0.00   0.0   446    19.18    504     1.1  0.24   1.3   0.057   0.000   25.6    38    0.00   440    1     64.3   30 
27/11/21  9:00a   16.6   16.6   15.6    62    9.2   0.0   ---  0.00   0.0   ---   16.6   16.0   16.0   23.3  1036.0  0.00   0.0   552    23.74    636     1.7  0.36   2.1   0.037   0.000   25.8    38    0.25   465    1     68.0   30 
27/11/21  9:30a   17.2   17.2   16.4    60    9.4   0.0   ---  0.00   0.0   ---   17.2   16.6   16.6   23.9  1036.2  0.00   0.0   651    28.00    846     2.2  0.47   3.0   0.023   0.000   26.0    38    0.00   462    1     67.5   30 
27/11/21 10:00a   17.6   17.6   16.9    58    9.2   0.0   ---  0.00   0.0   ---   17.6   17.0   17.0   24.6  1036.0  0.00   0.0   779    33.50    853     3.3  0.71   3.9   0.015   0.000   26.3    38    0.36   504    1     73.7   30 
27/11/21 10:30a   18.1   18.1   17.4    57    9.4   0.0   ---  0.00   0.0   ---   18.1   17.4   17.4   24.6  1036.0  0.00   0.0   844    36.30    893     4.2  0.90   4.8   0.006   0.000   26.2    37    0.00   564    1     82.5   30 
27/11/21 11:00a   18.4   18.4   17.7    54    9.0   0.0   ---  0.00   0.0   ---   18.4   17.7   17.7   24.6  1035.8  0.00   0.0   914    39.31    984     5.1  1.09   5.7   0.000   0.002   26.2    38    0.46   528    1     77.2   30 
27/11/21 11:30a   18.4   18.8   18.3    53    8.7   0.0   ---  0.00   0.0   ---   18.4   17.7   17.7   24.7  1035.7  0.00   0.0  1022    43.95   1065     6.0  1.29   6.7   0.000   0.002   26.1    37    0.00   470    1     68.7   30 
27/11/21 12:00p   19.3   19.3   18.0    52    9.2   0.0   ---  0.00   0.0   ---   19.3   18.7   18.7   24.2  1035.3  0.00   0.0   905    38.92   1074     6.6  1.41   7.0   0.000   0.021   26.1    37    0.00   428    1     62.6   30 
27/11/21 12:30p   19.8   19.9   19.2    49    8.8   0.0   ---  0.00   0.0   ---   19.8   19.0   19.0   25.2  1035.0  0.00   0.0  1055    45.37   1086     7.0  1.50   7.6   0.000   0.030   26.1    38    0.51   426    1     62.3   30 
27/11/21  1:00p   20.1   20.1   19.6    52    9.9   0.0   ---  0.00   0.0   ---   20.1   19.4   19.4   25.8  1034.8  0.00   0.0  1114    47.91   1229     7.7  1.65   8.1   0.000   0.036   26.0    38    0.61   417    1     61.0   30 
27/11/21  1:30p   20.6   20.7   20.0    47    8.9   0.0   ---  0.00   0.0   ---   20.6   19.7   19.7   25.9  1034.4  0.00   0.0  1118    48.08   1171     7.4  1.59   8.0   0.000   0.047   26.0    38    0.00   403    1     58.9   30 
27/11/21  2:00p   21.4   21.4   20.4    47    9.6   0.0   ---  0.00   0.0   ---   21.4   20.4   20.4   27.1  1034.1  0.00   0.0  1155    49.67   1243     7.3  1.56   8.1   0.000   0.064   26.1    38    0.61   414    1     60.5   30 
27/11/21  2:30p   20.5   21.5   20.4    49    9.4   0.0   ---  0.00   0.0   ---   20.5   19.7   19.7   24.8  1034.0  0.00   0.0   912    39.22   1241     6.1  1.31   7.8   0.000   0.045   26.0    38    0.00   438    1     64.0   30 
27/11/21  3:00p   20.9   20.9   20.4    48    9.5   0.0   ---  0.00   0.0   ---   20.9   19.9   19.9   22.6  1033.7  0.00   0.0   300    12.90    404     5.1  1.09   7.0   0.000   0.053   26.3    38    0.43   366    1     53.5   30 
27/11/21  3:30p   21.7   21.8   20.9    46    9.6   0.0   ---  0.00   0.0   ---   21.7   20.7   20.7   27.2  1033.4  0.00   0.0   967    41.59   1004     5.6  1.20   6.2   0.000   0.071   26.1    38    0.00   465    1     68.0   30 
27/11/21  4:00p   21.6   21.7   21.0    48   10.1   0.0   ---  0.00   0.0   ---   21.6   20.7   20.7   26.4  1033.1  0.00   0.0   806    34.66    993     4.4  0.94   5.0   0.000   0.068   26.1    38    0.48   551    1     80.6   30 
27/11/21  4:30p   21.2   21.8   21.1    48    9.7   0.0   ---  0.00   0.0   ---   21.2   20.1   20.1   26.1  1033.0  0.00   0.0   748    32.17    791     3.7  0.79   4.2   0.000   0.059   26.1    38    0.00   631    1     92.3   30 
27/11/21  5:00p   21.4   21.5   21.2    48   10.0   0.0   ---  0.00   0.0   ---   21.4   20.5   20.5   26.4  1032.9  0.00   0.0   656    28.21    700     2.8  0.60   3.2   0.000   0.065   26.1    38    0.41   606    1     88.6   30 
27/11/21  5:30p   20.9   21.4   20.8    49    9.8   0.0   ---  0.00   0.0   ---   20.9   20.0   20.0   25.8  1033.1  0.00   0.0   560    24.08    610     2.0  0.43   2.4   0.000   0.054   26.1    38    0.00   479    1     70.0   30 
27/11/21  6:00p   20.4   21.1   20.4    50    9.6   0.0   ---  0.00   0.0   ---   20.4   19.6   19.6   25.2  1033.1  0.00   0.0   467    20.08    501     1.4  0.30   1.6   0.000   0.043   26.1    38    0.30   380    1     55.6   30 
27/11/21  6:30p   20.2   20.6   20.2    51    9.7   0.0   ---  0.00   0.0   ---   20.2   19.5   19.5   24.3  1033.4  0.00   0.0   349    15.01    394     0.8  0.17   1.0   0.000   0.038   26.1    38    0.00   316    1     46.2   30 
27/11/21  7:00p   19.6   20.2   19.6    52    9.4   0.0   ---  0.00   0.0   ---   19.6   18.9   18.9   22.2  1033.7  0.00   0.0   230     9.89    278     0.3  0.06   0.6   0.000   0.025   26.0    38    0.18   256    1     37.4   30 
27/11/21  7:30p   18.6   19.6   18.6    55    9.3   0.0   ---  0.00   0.0   ---   18.6   17.9   17.9   18.9  1034.1  0.00   0.0    99     4.26    160     0.0  0.00   0.0   0.000   0.005   26.1    38    0.00   315    1     46.1   30 
27/11/21  8:00p   17.6   18.6   17.6    58    9.2   0.0   ---  0.00   0.0   ---   17.6   16.9   16.9   15.4  1034.5  0.00   0.0    20     0.86     28     0.0  0.00   0.0   0.016   0.000   26.0    38    0.05   346    1     50.6   30 
27/11/21  8:30p   16.7   17.6   16.7    61    9.2   0.0   ---  0.00   0.0   ---   16.7   16.1   16.1   14.4  1034.8  0.00   0.0     6     0.26     12     0.0  0.00   0.0   0.034   0.000   26.0    38    0.00   351    1     51.3   30 
27/11/21  9:00p   15.9   16.7   15.9    64    9.1   0.0   ---  0.00   0.0   ---   15.9   15.4   15.4   13.7  1035.1  0.00   0.0     0     0.00      0     0.0  0.00   0.0   0.050   0.000   26.1    38    0.00   356    1     52.0   30 
27/11/21  9:30p   15.2   15.9   15.2    67    9.1   0.0   ---  0.00   0.0   ---   15.2   14.7   14.7   12.9  1035.6  0.00   0.0     0     0.00      0     0.0  0.00   0.0   0.066   0.000   26.0    38    0.00   417    1     61.0   30 
27/11/21 10:00p   14.7   15.2   14.7    68    8.8   0.0   ---  0.00   0.0   ---   14.7   14.2   14.2   12.4  1035.9  0.00   0.0     0     0.00      0     0.0  0.00   0.0   0.076   0.000   26.0    38    0.03   498    1     72.8   30 
27/11/21 10:30p   14.3   14.7   14.3    68    8.5   0.0   ---  0.00   0.0   ---   14.3   13.8   13.8   12.1  1036.0  0.00   0.0     0     0.00      0     0.0  0.00   0.0   0.083   0.000   26.2    38    0.00   591    1     86.4   30 
27/11/21 11:00p   13.8   14.3   13.8    70    8.5   0.0   ---  0.00   0.0   ---   13.8   13.4   13.4   11.6  1035.9  0.00   0.0     0     0.00      0     0.0  0.00   0.0   0.094   0.000   26.0    38    0.03   548    1     80.1   30 
27/11/21 11:30p   13.2   13.8   13.2    72    8.2   0.0   ---  0.00   0.0   ---   13.2   12.8   12.8   10.9  1035.8  0.00   0.0     0     0.00      0     0.0  0.00   0.0   0.108   0.000   26.2    38    0.00   612    1     89.5   30 
28/11/21 12:00a   11.9   13.2   11.9    77    8.0   0.0   ---  0.00   0.0   ---   11.9   11.7   11.7    9.8  1035.9  0.00   0.0     0     0.00      0     0.0  0.00   0.0   0.134   0.000   26.2    38    0.03   586    1     85.7   30 
28/11/21 12:30a   10.7   11.9   10.7    82    7.8   0.0   ---  0.00   0.0   ---   10.7   10.7   10.7    8.8  1035.8  0.00   0.0     0     0.00      0     0.0  0.00   0.0   0.159   0.000   26.2    38    0.00   553    1     80.8   30 
28/11/21  1:00a   10.0   10.7   10.0    85    7.6   0.0   ---  0.00   0.0   ---   10.0   10.1   10.1    8.2  1035.6  0.00   0.0     0     0.00      0     0.0  0.00   0.0   0.174   0.000   26.1    37    0.03   601    1     87.9   30 
28/11/21  1:30a    9.3   10.0    9.3    87    7.3   0.0   ---  0.00   0.0   ---    9.3    9.4    9.4    7.6  1035.4  0.00   0.0     0     0.00      0     0.0  0.00   0.0   0.188   0.000   26.0    37    0.00   618    1     90.4   30 
28/11/21  2:00a    8.9    9.3    8.9    89    7.2   0.0   ---  0.00   0.0   ---    8.9    9.1    9.1    7.2  1035.3  0.00   0.0     0     0.00      0     0.0  0.00   0.0   0.196   0.000   25.9    37    0.00   583    1     85.2   30 
28/11/21  2:30a    8.5    8.9    8.5    90    7.0   0.0   ---  0.00   0.0   ---    8.5    8.6    8.6    6.8  1035.3  0.00   0.0     0     0.00      0     0.0  0.00   0.0   0.205   0.000   25.8    37    0.00   517    1     75.6   30 
28/11/21  3:00a    8.4    8.5    8.4    91    7.1   0.0   ---  0.00   0.0   ---    8.4    8.6    8.6    6.7  1035.3  0.00   0.0     0     0.00      0     0.0  0.00   0.0   0.206   0.000   25.5    37    0.00   602    1     88.0   30 
28/11/21  3:30a    8.2    8.4    8.2    91    6.8   0.0   ---  0.00   0.0   ---    8.2    8.3    8.3    6.4  1035.2  0.00   0.0     0     0.00      0     0.0  0.00   0.0   0.212   0.000   25.4    37    0.00   615    1     89.9   30 
28/11/21  4:00a    7.8    8.2    7.8    92    6.6   0.0   ---  0.00   0.0   ---    7.8    7.9    7.9    6.1  1035.3  0.00   0.0     0     0.00      0     0.0  0.00   0.0   0.219   0.000   25.3    37    0.00   600    1     87.7   30 
28/11/21  4:30a    7.7    7.8    7.7    92    6.4   0.0   ---  0.00   0.0   ---    7.7    7.8    7.8    5.9  1035.3  0.00   0.0     0     0.00      0     0.0  0.00   0.0   0.222   0.000   25.1    37    0.00   556    1     81.3   30 
28/11/21  5:00a    7.4    7.7    7.4    92    6.2   0.0   ---  0.00   0.0   ---    7.4    7.5    7.5    5.6  1035.6  0.00   0.0     0     0.00      0     0.0  0.00   0.0   0.228   0.000   25.0    37    0.00   588    1     86.0   30 
28/11/21  5:30a    7.2    7.4    7.2    93    6.1   0.0   ---  0.00   0.0   ---    7.2    7.3    7.3    5.4  1035.7  0.00   0.0     0     0.00      0     0.0  0.00   0.0   0.233   0.000   24.8    37    0.00   593    1     86.7   30 
28/11/21  6:00a    6.9    7.2    6.8    93    5.8   0.0   ---  0.00   0.0   ---    6.9    7.0    7.0    5.2  1035.9  0.00   0.0     4     0.17     11     0.0  0.00   0.0   0.238   0.000   24.7    37    0.00   606    1     88.6   30 
28/11/21  6:30a    7.1    7.1    6.8    94    6.2   0.0   ---  0.00   0.0   ---    7.1    7.2    7.2    5.7  1036.2  0.00   0.0    30     1.29     58     0.0  0.00   0.0   0.235   0.000   24.6    37    0.00   576    1     84.2   30 
28/11/21  7:00a    8.0    8.0    7.1    95    7.2   0.0   ---  0.00   0.0   ---    8.0    8.2    8.2    7.6  1036.6  0.00   0.0   107     4.60    149     0.0  0.00   0.0   0.215   0.000   24.6    37    0.03   542    1     79.2   30 
28/11/21  7:30a    9.3    9.3    8.0    93    8.3   0.0   ---  0.00   0.0   ---    9.3    9.6    9.6   10.2  1036.8  0.00   0.0   206     8.86    262     0.0  0.00   0.0   0.188   0.000   24.6    37    0.00   517    1     75.6   30 
28/11/21  8:00a   11.7   11.7    9.4    88    9.7   0.0   ---  0.00   0.0   ---   11.7   11.7   11.7   17.2  1037.1  0.00   0.0   323    13.89    378     0.5  0.11   0.9   0.139   0.000   24.7    37    0.00   525    1     76.8   30 
28/11/21  8:30a   13.8   13.8   11.7    77    9.8   0.0   ---  0.00   0.0   ---   13.8   13.6   13.6   20.3  1037.1  0.00   0.0   438    18.84    492     1.2  0.26   1.4   0.095   0.000   25.0    37    0.13   532    1     77.8   30 
28/11/21  9:00a   14.6   14.6   13.8    71    9.4   0.0   ---  0.00   0.0   ---   14.6   14.2   14.2   21.3  1037.3  0.00   0.0   546    23.48    601     1.8  0.39   2.1   0.079   0.000   25.2    37    0.25   511    1     74.7   30 
28/11/21  9:30a   15.5   15.6   14.6    65    8.9   0.0   ---  0.00   0.0   ---   15.5   15.0   15.0   22.2  1037.2  0.00   0.0   647    27.82    696     2.4  0.51   2.8   0.059   0.000   25.5    37    0.00   430    1     62.9   30 
28/11/21 10:00a   16.4   16.4   15.5    62    9.1   0.0   ---  0.00   0.0   ---   16.4   15.8   15.8   23.0  1036.7  0.00   0.0   750    32.25    793     3.4  0.73   3.7   0.041   0.000   25.8    36    0.00   422    1     61.7   30 
28/11/21 10:30a   17.1   17.3   16.4    58    8.8   0.0   ---  0.00   0.0   ---   17.1   16.4   16.4   23.4  1036.6  0.00   0.0   838    36.04    872     4.3  0.92   4.7   0.025   0.000   26.1    36    0.38   437    1     63.9   30 
28/11/21 11:00a   18.4   18.5   17.1    54    9.0   0.0   ---  0.00   0.0   ---   18.4   17.7   17.7   24.4  1036.2  0.00   0.0   905    38.92    935     5.1  1.09   5.6   0.000   0.002   26.1    36    0.48   520    1     76.0   30 
28/11/21 11:30a   19.4   19.4   18.4    53    9.6   0.0   ---  0.00   0.0   ---   19.4   18.8   18.8   25.4  1035.8  0.00   0.0   968    41.63    993     6.0  1.29   6.3   0.000   0.023   26.1    36    0.00   527    1     77.0   30 
28/11/21 12:00p   19.8   19.8   19.4    52    9.7   0.0   ---  0.00   0.0   ---   19.8   19.2   19.2   25.6  1035.4  0.00   0.0  1018    43.78   1035     6.7  1.44   6.9   0.000   0.031   26.0    36    0.56   541    1     79.1   30 
28/11/21 12:30p   20.7   20.7   19.8    50    9.9   0.0   ---  0.00   0.0   ---   20.7   19.9   19.9   26.1  1034.7  0.00   0.0  1046    44.98   1056     7.1  1.52   7.4   0.000   0.050   26.1    36    0.00   525    1     76.8   30 
28/11/21  1:00p   21.6   21.6   20.7    46    9.4   0.0   ---  0.00   0.0   ---   21.6   20.5   20.5   26.5  1034.3  0.00   0.0  1061    45.63   1071     7.5  1.61   7.5   0.000   0.067   26.0    36    0.61   507    1     74.1   30